UAL511 KMCO-GOBD
Flight info
| Callsign | UAL511 |
|---|---|
| Flight time | 7h 2m |
| Altitude | 35000 |
| Route | MZULO3 LENDS M203 SNAGY 2960N 2957N 2950N 2945N 2842N 2740N 2434N ULTEM UR976 LUMPO R976 LIGOV |
| Aircraft | B77W/H-V/N |
Departure
| Time | 2026-04-25 13:39 |
|---|---|
| Airport | Orlando International Airport (KMCO) |
Arrival
| Time | 2026-04-25 20:42 |
|---|---|
| Airport | Blaise Diagne International Airport (GOBD) |
| Time | Latitude | Longitude | Altitude | Speed | Heading |
|---|---|---|---|---|---|
| 2026-04-25 11:56 | 28.42730 | -81.30376 | 108 ft | 0 kts | 111° |
| 2026-04-25 13:16 | 28.42733 | -81.30386 | 108 ft | 2 kts | 111° |
| 2026-04-25 13:16 | 28.42739 | -81.30403 | 108 ft | 2 kts | 111° |
| 2026-04-25 13:16 | 28.42745 | -81.30421 | 106 ft | 2 kts | 111° |
| 2026-04-25 13:16 | 28.42755 | -81.30434 | 107 ft | 2 kts | 163° |
| 2026-04-25 13:17 | 28.42771 | -81.30435 | 107 ft | 2 kts | 210° |
| 2026-04-25 13:17 | 28.42783 | -81.30422 | 106 ft | 2 kts | 226° |
| 2026-04-25 13:17 | 28.42776 | -81.30430 | 106 ft | 2 kts | 219° |
| 2026-04-25 13:17 | 28.42775 | -81.30431 | 106 ft | 0 kts | 219° |
| 2026-04-25 13:20 | 28.42738 | -81.30441 | 106 ft | 13 kts | 179° |
| 2026-04-25 13:21 | 28.42675 | -81.30450 | 107 ft | 0 kts | 188° |
| 2026-04-25 13:21 | 28.42640 | -81.30448 | 107 ft | 7 kts | 166° |
| 2026-04-25 13:21 | 28.42595 | -81.30417 | 107 ft | 8 kts | 150° |
| 2026-04-25 13:21 | 28.42586 | -81.30411 | 107 ft | 1 kts | 155° |
| 2026-04-25 13:22 | 28.42582 | -81.30409 | 107 ft | 1 kts | 156° |
| 2026-04-25 13:22 | 28.42560 | -81.30405 | 107 ft | 7 kts | 174° |
| 2026-04-25 13:22 | 28.42537 | -81.30404 | 107 ft | 0 kts | 177° |
| 2026-04-25 13:23 | 28.42524 | -81.30403 | 107 ft | 8 kts | 177° |
| 2026-04-25 13:24 | 28.42460 | -81.30400 | 107 ft | 9 kts | 178° |
| 2026-04-25 13:24 | 28.42395 | -81.30396 | 108 ft | 9 kts | 170° |
| 2026-04-25 13:24 | 28.42361 | -81.30339 | 109 ft | 9 kts | 98° |
| 2026-04-25 13:24 | 28.42358 | -81.30265 | 107 ft | 9 kts | 89° |
| 2026-04-25 13:25 | 28.42360 | -81.30191 | 108 ft | 9 kts | 88° |
| 2026-04-25 13:25 | 28.42362 | -81.30112 | 108 ft | 10 kts | 88° |
| 2026-04-25 13:25 | 28.42362 | -81.30028 | 109 ft | 12 kts | 90° |
| 2026-04-25 13:25 | 28.42363 | -81.29929 | 108 ft | 13 kts | 89° |
| 2026-04-25 13:26 | 28.42370 | -81.29832 | 107 ft | 12 kts | 68° |
| 2026-04-25 13:26 | 28.42448 | -81.29795 | 107 ft | 13 kts | 6° |
| 2026-04-25 13:26 | 28.42537 | -81.29795 | 107 ft | 13 kts | 360° |
| 2026-04-25 13:26 | 28.42626 | -81.29795 | 107 ft | 13 kts | 360° |
| 2026-04-25 13:27 | 28.42714 | -81.29796 | 108 ft | 13 kts | 359° |
| 2026-04-25 13:27 | 28.42783 | -81.29798 | 108 ft | 9 kts | 359° |
| 2026-04-25 13:27 | 28.42871 | -81.29799 | 108 ft | 13 kts | 359° |
| 2026-04-25 13:27 | 28.42962 | -81.29800 | 108 ft | 13 kts | 359° |
| 2026-04-25 13:28 | 28.43053 | -81.29801 | 108 ft | 13 kts | 359° |
| 2026-04-25 13:28 | 28.43084 | -81.29801 | 108 ft | 13 kts | 360° |
| 2026-04-25 13:28 | 28.43161 | -81.29801 | 108 ft | 5 kts | 359° |
| 2026-04-25 13:28 | 28.43197 | -81.29801 | 108 ft | 5 kts | 359° |
| 2026-04-25 13:29 | 28.43206 | -81.29801 | 108 ft | 4 kts | 359° |
| 2026-04-25 13:29 | 28.43212 | -81.29801 | 108 ft | 0 kts | 359° |
| 2026-04-25 13:36 | 28.43260 | -81.29802 | 108 ft | 10 kts | 359° |
| 2026-04-25 13:36 | 28.43332 | -81.29803 | 108 ft | 10 kts | 360° |
| 2026-04-25 13:36 | 28.43405 | -81.29803 | 108 ft | 10 kts | 360° |
| 2026-04-25 13:36 | 28.43477 | -81.29804 | 108 ft | 10 kts | 359° |
| 2026-04-25 13:37 | 28.43543 | -81.29779 | 108 ft | 10 kts | 54° |
| 2026-04-25 13:37 | 28.43550 | -81.29697 | 108 ft | 10 kts | 90° |
| 2026-04-25 13:37 | 28.43541 | -81.29617 | 109 ft | 10 kts | 120° |
| 2026-04-25 13:37 | 28.43476 | -81.29587 | 110 ft | 11 kts | 178° |
| 2026-04-25 13:38 | 28.43455 | -81.29587 | 110 ft | 0 kts | 179° |
| 2026-04-25 13:38 | 28.43420 | -81.29586 | 110 ft | 29 kts | 179° |
| 2026-04-25 13:39 | 28.43150 | -81.29584 | 109 ft | 89 kts | 179° |
| 2026-04-25 13:39 | 28.42229 | -81.29572 | 105 ft | 174 kts | 178° |
| 2026-04-25 13:39 | 28.40837 | -81.29573 | 580 ft | 206 kts | 180° |
| 2026-04-25 13:39 | 28.39368 | -81.29474 | 1578 ft | 225 kts | 166° |
| 2026-04-25 13:40 | 28.37934 | -81.28658 | 2249 ft | 233 kts | 151° |
| 2026-04-25 13:40 | 28.36459 | -81.27750 | 2545 ft | 251 kts | 154° |
| 2026-04-25 13:40 | 28.34861 | -81.26827 | 2943 ft | 262 kts | 152° |
| 2026-04-25 13:40 | 28.33397 | -81.25568 | 3490 ft | 267 kts | 134° |
| 2026-04-25 13:41 | 28.32126 | -81.24028 | 4148 ft | 271 kts | 133° |
| 2026-04-25 13:41 | 28.30835 | -81.22433 | 4879 ft | 272 kts | 130° |
| 2026-04-25 13:41 | 28.29922 | -81.20589 | 5403 ft | 276 kts | 100° |
| 2026-04-25 13:41 | 28.30049 | -81.18433 | 5989 ft | 277 kts | 65° |
| 2026-04-25 13:42 | 28.31041 | -81.16571 | 6594 ft | 276 kts | 57° |
| 2026-04-25 13:42 | 28.32033 | -81.14703 | 7159 ft | 281 kts | 59° |
| 2026-04-25 13:42 | 28.32995 | -81.12763 | 7781 ft | 284 kts | 59° |
| 2026-04-25 13:42 | 28.33966 | -81.10776 | 8408 ft | 287 kts | 59° |
| 2026-04-25 13:43 | 28.34942 | -81.08774 | 9058 ft | 291 kts | 59° |
| 2026-04-25 13:43 | 28.35920 | -81.06767 | 9658 ft | 295 kts | 59° |
| 2026-04-25 13:43 | 28.36920 | -81.04713 | 10236 ft | 298 kts | 59° |
| 2026-04-25 13:43 | 28.37930 | -81.02636 | 10808 ft | 300 kts | 59° |
| 2026-04-25 13:44 | 28.38933 | -81.00572 | 11388 ft | 303 kts | 59° |
| 2026-04-25 13:44 | 28.39955 | -80.98465 | 11969 ft | 306 kts | 59° |
| 2026-04-25 13:44 | 28.40990 | -80.96332 | 12531 ft | 309 kts | 58° |
| 2026-04-25 13:44 | 28.42035 | -80.94175 | 13129 ft | 312 kts | 58° |
| 2026-04-25 13:45 | 28.43086 | -80.92007 | 13713 ft | 314 kts | 58° |
| 2026-04-25 13:45 | 28.44137 | -80.89839 | 14229 ft | 318 kts | 59° |
| 2026-04-25 13:45 | 28.45214 | -80.87615 | 14725 ft | 322 kts | 58° |
| 2026-04-25 13:45 | 28.46301 | -80.85370 | 15023 ft | 335 kts | 59° |
| 2026-04-25 13:46 | 28.47310 | -80.82887 | 15139 ft | 355 kts | 69° |
| 2026-04-25 13:46 | 28.47996 | -80.80103 | 15286 ft | 375 kts | 78° |
| 2026-04-25 13:46 | 28.48384 | -80.77123 | 15426 ft | 394 kts | 81° |
| 2026-04-25 13:46 | 28.48718 | -80.73966 | 15616 ft | 410 kts | 82° |
| 2026-04-25 13:47 | 28.49048 | -80.70694 | 16004 ft | 420 kts | 82° |
| 2026-04-25 13:47 | 28.49389 | -80.67355 | 16508 ft | 426 kts | 82° |
| 2026-04-25 13:47 | 28.49739 | -80.64030 | 17067 ft | 430 kts | 81° |
| 2026-04-25 13:47 | 28.50107 | -80.60618 | 17663 ft | 433 kts | 81° |
| 2026-04-25 13:48 | 28.50482 | -80.57189 | 18239 ft | 438 kts | 81° |
| 2026-04-25 13:48 | 28.50859 | -80.53763 | 18726 ft | 442 kts | 81° |
| 2026-04-25 13:48 | 28.51244 | -80.50267 | 19216 ft | 447 kts | 81° |
| 2026-04-25 13:48 | 28.51632 | -80.46737 | 19749 ft | 449 kts | 81° |
| 2026-04-25 13:49 | 28.52016 | -80.43229 | 20306 ft | 452 kts | 81° |
| 2026-04-25 13:49 | 28.52405 | -80.39667 | 20851 ft | 454 kts | 81° |
| 2026-04-25 13:49 | 28.52796 | -80.36072 | 21364 ft | 457 kts | 81° |
| 2026-04-25 13:49 | 28.53208 | -80.32464 | 21856 ft | 460 kts | 78° |
| 2026-04-25 13:50 | 28.53878 | -80.28952 | 22336 ft | 461 kts | 72° |
| 2026-04-25 13:50 | 28.54863 | -80.25474 | 22833 ft | 462 kts | 66° |
| 2026-04-25 13:50 | 28.56138 | -80.22079 | 23320 ft | 464 kts | 64° |
| 2026-04-25 13:50 | 28.57450 | -80.18704 | 23764 ft | 467 kts | 63° |
| 2026-04-25 13:51 | 28.58755 | -80.15344 | 24195 ft | 469 kts | 64° |
| 2026-04-25 13:51 | 28.60073 | -80.11924 | 24690 ft | 469 kts | 64° |
| 2026-04-25 13:51 | 28.61357 | -80.08565 | 25161 ft | 469 kts | 65° |
| 2026-04-25 13:51 | 28.62660 | -80.05134 | 25568 ft | 471 kts | 65° |
| 2026-04-25 13:52 | 28.63969 | -80.01672 | 25941 ft | 474 kts | 65° |
| 2026-04-25 13:52 | 28.65259 | -79.98252 | 26322 ft | 477 kts | 65° |
| 2026-04-25 13:52 | 28.66575 | -79.94759 | 26705 ft | 479 kts | 65° |
| 2026-04-25 13:52 | 28.67878 | -79.91299 | 27083 ft | 480 kts | 65° |
| 2026-04-25 13:53 | 28.69200 | -79.87783 | 27465 ft | 482 kts | 65° |
| 2026-04-25 13:53 | 28.70527 | -79.84255 | 27833 ft | 484 kts | 65° |
| 2026-04-25 13:53 | 28.71844 | -79.80747 | 28161 ft | 486 kts | 65° |
| 2026-04-25 13:53 | 28.73181 | -79.77185 | 28488 ft | 489 kts | 65° |
| 2026-04-25 13:54 | 28.74533 | -79.73581 | 28561 ft | 496 kts | 65° |
| 2026-04-25 13:54 | 28.77265 | -79.66282 | 28664 ft | 508 kts | 65° |
| 2026-04-25 13:55 | 28.80082 | -79.58796 | 29013 ft | 512 kts | 63° |
| 2026-04-25 13:55 | 28.81706 | -79.55192 | 29342 ft | 510 kts | 59° |
| 2026-04-25 13:55 | 28.83615 | -79.51808 | 29365 ft | 513 kts | 53° |
| 2026-04-25 13:56 | 28.87859 | -79.45195 | 29697 ft | 516 kts | 52° |
| 2026-04-25 13:56 | 28.89954 | -79.41927 | 29957 ft | 515 kts | 52° |
| 2026-04-25 13:56 | 28.92067 | -79.38601 | 30201 ft | 514 kts | 53° |
| 2026-04-25 13:56 | 28.94161 | -79.35284 | 30399 ft | 514 kts | 53° |
| 2026-04-25 13:57 | 28.96226 | -79.31992 | 30588 ft | 514 kts | 53° |
| 2026-04-25 13:57 | 28.97630 | -79.29749 | 30799 ft | 511 kts | 53° |
| 2026-04-25 13:57 | 29.00355 | -79.25385 | 31427 ft | 502 kts | 53° |
| 2026-04-25 13:57 | 29.02359 | -79.22174 | 31619 ft | 504 kts | 53° |
| 2026-04-25 13:58 | 29.04404 | -79.18899 | 31637 ft | 508 kts | 53° |
| 2026-04-25 13:58 | 29.08526 | -79.12293 | 31721 ft | 513 kts | 53° |
| 2026-04-25 13:58 | 29.10609 | -79.08950 | 31884 ft | 513 kts | 53° |
| 2026-04-25 13:59 | 29.12680 | -79.05622 | 32080 ft | 512 kts | 53° |
| 2026-04-25 13:59 | 29.14726 | -79.02333 | 32248 ft | 512 kts | 53° |
| 2026-04-25 13:59 | 29.16793 | -78.99007 | 32374 ft | 512 kts | 53° |
| 2026-04-25 13:59 | 29.18868 | -78.95666 | 32542 ft | 512 kts | 53° |
| 2026-04-25 14:00 | 29.20908 | -78.92379 | 32693 ft | 512 kts | 53° |
| 2026-04-25 14:00 | 29.22975 | -78.89045 | 32855 ft | 512 kts | 53° |
| 2026-04-25 14:00 | 29.25045 | -78.85703 | 32917 ft | 513 kts | 53° |
| 2026-04-25 14:01 | 29.29155 | -78.79061 | 33003 ft | 513 kts | 53° |
| 2026-04-25 14:01 | 29.33271 | -78.72399 | 32993 ft | 512 kts | 53° |
| 2026-04-25 14:02 | 29.36934 | -78.65376 | 33011 ft | 513 kts | 63° |
| 2026-04-25 14:02 | 29.39431 | -78.57746 | 33008 ft | 514 kts | 72° |
| 2026-04-25 14:03 | 29.40851 | -78.49716 | 33006 ft | 515 kts | 81° |
| 2026-04-25 14:03 | 29.41819 | -78.41548 | 33002 ft | 516 kts | 81° |
| 2026-04-25 14:04 | 29.42832 | -78.33394 | 33003 ft | 516 kts | 81° |
| 2026-04-25 14:04 | 29.43862 | -78.25280 | 33002 ft | 516 kts | 81° |
| 2026-04-25 14:05 | 29.44899 | -78.17090 | 33002 ft | 517 kts | 81° |
| 2026-04-25 14:05 | 29.45918 | -78.08977 | 33003 ft | 517 kts | 81° |
| 2026-04-25 14:06 | 29.46937 | -78.00818 | 33004 ft | 517 kts | 81° |
| 2026-04-25 14:06 | 29.47988 | -77.92355 | 33010 ft | 518 kts | 81° |
| 2026-04-25 14:07 | 29.48994 | -77.84209 | 33001 ft | 518 kts | 81° |
| 2026-04-25 14:07 | 29.50003 | -77.76004 | 33003 ft | 517 kts | 81° |
| 2026-04-25 14:08 | 29.51000 | -77.67850 | 33002 ft | 517 kts | 81° |
| 2026-04-25 14:08 | 29.51997 | -77.59675 | 33003 ft | 517 kts | 81° |
| 2026-04-25 14:09 | 29.52986 | -77.51526 | 33008 ft | 517 kts | 81° |
| 2026-04-25 14:09 | 29.53976 | -77.43321 | 33003 ft | 517 kts | 81° |
| 2026-04-25 14:10 | 29.54951 | -77.35195 | 33007 ft | 516 kts | 81° |
| 2026-04-25 14:10 | 29.55927 | -77.27025 | 33007 ft | 516 kts | 82° |
| 2026-04-25 14:11 | 29.56901 | -77.18825 | 33005 ft | 516 kts | 82° |
| 2026-04-25 14:11 | 29.57862 | -77.10688 | 33004 ft | 516 kts | 82° |
| 2026-04-25 14:12 | 29.58824 | -77.02498 | 33008 ft | 516 kts | 82° |
| 2026-04-25 14:12 | 29.59778 | -76.94337 | 33009 ft | 516 kts | 82° |
| 2026-04-25 14:13 | 29.60707 | -76.86130 | 33009 ft | 516 kts | 84° |
| 2026-04-25 14:13 | 29.61016 | -76.77912 | 33001 ft | 516 kts | 88° |
| 2026-04-25 14:14 | 29.61182 | -76.69638 | 33009 ft | 516 kts | 88° |
| 2026-04-25 14:14 | 29.61361 | -76.61399 | 33008 ft | 517 kts | 88° |
| 2026-04-25 14:15 | 29.61561 | -76.53167 | 33009 ft | 517 kts | 88° |
| 2026-04-25 14:15 | 29.61767 | -76.44904 | 33014 ft | 517 kts | 88° |
| 2026-04-25 14:16 | 29.61966 | -76.36671 | 33014 ft | 517 kts | 88° |
| 2026-04-25 14:16 | 29.62160 | -76.28420 | 33017 ft | 517 kts | 88° |
| 2026-04-25 14:17 | 29.62348 | -76.20130 | 33016 ft | 517 kts | 88° |
| 2026-04-25 14:17 | 29.62530 | -76.11898 | 33016 ft | 517 kts | 88° |
| 2026-04-25 14:18 | 29.62678 | -76.05007 | 33023 ft | 517 kts | 88° |
| 2026-04-25 14:18 | 29.62851 | -75.96720 | 33021 ft | 517 kts | 88° |
| 2026-04-25 14:19 | 29.63019 | -75.88483 | 33018 ft | 517 kts | 89° |
| 2026-04-25 14:19 | 29.63181 | -75.80245 | 33106 ft | 518 kts | 89° |
| 2026-04-25 14:19 | 29.63261 | -75.76097 | 33351 ft | 515 kts | 89° |
| 2026-04-25 14:20 | 29.63339 | -75.71985 | 33576 ft | 513 kts | 89° |
| 2026-04-25 14:20 | 29.63490 | -75.63806 | 33909 ft | 512 kts | 89° |
| 2026-04-25 14:20 | 29.63564 | -75.59702 | 34055 ft | 511 kts | 89° |
| 2026-04-25 14:21 | 29.63636 | -75.55606 | 34202 ft | 511 kts | 89° |
| 2026-04-25 14:21 | 29.63777 | -75.47462 | 34446 ft | 510 kts | 89° |
| 2026-04-25 14:22 | 29.63911 | -75.39366 | 34662 ft | 509 kts | 89° |
| 2026-04-25 14:22 | 29.63978 | -75.35262 | 34774 ft | 509 kts | 89° |
| 2026-04-25 14:22 | 29.64042 | -75.31190 | 34868 ft | 508 kts | 89° |
| 2026-04-25 14:23 | 29.64168 | -75.23040 | 35017 ft | 506 kts | 89° |
| 2026-04-25 14:23 | 29.64288 | -75.14965 | 35028 ft | 508 kts | 89° |
| 2026-04-25 14:24 | 29.64403 | -75.06809 | 35026 ft | 509 kts | 89° |
| 2026-04-25 14:24 | 29.64514 | -74.98668 | 35025 ft | 510 kts | 89° |
| 2026-04-25 14:25 | 29.64619 | -74.90548 | 35022 ft | 511 kts | 89° |
| 2026-04-25 14:25 | 29.64720 | -74.82379 | 35021 ft | 511 kts | 89° |
| 2026-04-25 14:26 | 29.64816 | -74.74232 | 35024 ft | 511 kts | 89° |
| 2026-04-25 14:26 | 29.64907 | -74.66051 | 35024 ft | 510 kts | 89° |
| 2026-04-25 14:27 | 29.64993 | -74.57904 | 35025 ft | 509 kts | 89° |
| 2026-04-25 14:27 | 29.65073 | -74.49799 | 35024 ft | 509 kts | 89° |
| 2026-04-25 14:28 | 29.65149 | -74.41623 | 35025 ft | 508 kts | 89° |
| 2026-04-25 14:28 | 29.65219 | -74.33537 | 35026 ft | 508 kts | 89° |
| 2026-04-25 14:29 | 29.65285 | -74.25411 | 35034 ft | 508 kts | 89° |
| 2026-04-25 14:29 | 29.65346 | -74.17265 | 35030 ft | 508 kts | 90° |
| 2026-04-25 14:30 | 29.65401 | -74.09181 | 35030 ft | 508 kts | 90° |
| 2026-04-25 14:30 | 29.65476 | -73.97004 | 35031 ft | 508 kts | 90° |
| 2026-04-25 14:31 | 29.65519 | -73.88853 | 35033 ft | 509 kts | 90° |
| 2026-04-25 14:31 | 29.65557 | -73.80743 | 35033 ft | 509 kts | 90° |
| 2026-04-25 14:32 | 29.65591 | -73.72588 | 35033 ft | 510 kts | 90° |
| 2026-04-25 14:32 | 29.65620 | -73.64410 | 35034 ft | 510 kts | 90° |
| 2026-04-25 14:33 | 29.65643 | -73.56283 | 35042 ft | 510 kts | 90° |
| 2026-04-25 14:33 | 29.65662 | -73.48146 | 35035 ft | 511 kts | 90° |
| 2026-04-25 14:34 | 29.65676 | -73.39944 | 35040 ft | 511 kts | 90° |
| 2026-04-25 14:34 | 29.65684 | -73.31803 | 35040 ft | 511 kts | 90° |
| 2026-04-25 14:35 | 29.65688 | -73.23603 | 35039 ft | 511 kts | 90° |
| 2026-04-25 14:35 | 29.65686 | -73.15437 | 35036 ft | 512 kts | 90° |
| 2026-04-25 14:36 | 29.65680 | -73.07285 | 35033 ft | 512 kts | 90° |
| 2026-04-25 14:36 | 29.65669 | -72.99123 | 35036 ft | 512 kts | 90° |
| 2026-04-25 14:37 | 29.65652 | -72.90907 | 35039 ft | 512 kts | 90° |
| 2026-04-25 14:37 | 29.65631 | -72.82733 | 35042 ft | 512 kts | 90° |
| 2026-04-25 14:38 | 29.65604 | -72.74502 | 35041 ft | 513 kts | 90° |
| 2026-04-25 14:38 | 29.65573 | -72.66339 | 35048 ft | 513 kts | 90° |
| 2026-04-25 14:39 | 29.65536 | -72.58108 | 35044 ft | 513 kts | 90° |
| 2026-04-25 14:39 | 29.65494 | -72.49931 | 35046 ft | 513 kts | 90° |
| 2026-04-25 14:40 | 29.65448 | -72.41776 | 35040 ft | 513 kts | 91° |
| 2026-04-25 14:40 | 29.65396 | -72.33552 | 35044 ft | 513 kts | 91° |
| 2026-04-25 14:41 | 29.65339 | -72.25382 | 35041 ft | 513 kts | 91° |
| 2026-04-25 14:41 | 29.65277 | -72.17148 | 35043 ft | 513 kts | 91° |
| 2026-04-25 14:42 | 29.65222 | -72.10356 | 35045 ft | 513 kts | 91° |
| 2026-04-25 14:42 | 29.65139 | -72.00789 | 35045 ft | 513 kts | 91° |
| 2026-04-25 14:43 | 29.65061 | -71.92554 | 35044 ft | 514 kts | 91° |
| 2026-04-25 14:43 | 29.64979 | -71.84371 | 35039 ft | 514 kts | 91° |
| 2026-04-25 14:44 | 29.64892 | -71.76123 | 35045 ft | 514 kts | 91° |
| 2026-04-25 14:44 | 29.64800 | -71.67916 | 35043 ft | 515 kts | 91° |
| 2026-04-25 14:45 | 29.64702 | -71.59697 | 35050 ft | 515 kts | 91° |
| 2026-04-25 14:45 | 29.64599 | -71.51449 | 35044 ft | 515 kts | 91° |
| 2026-04-25 14:46 | 29.64492 | -71.43256 | 35041 ft | 514 kts | 91° |
| 2026-04-25 14:46 | 29.64379 | -71.35014 | 35044 ft | 513 kts | 91° |
| 2026-04-25 14:47 | 29.64282 | -71.28236 | 35044 ft | 512 kts | 91° |
| 2026-04-25 14:47 | 29.64140 | -71.18695 | 35044 ft | 512 kts | 91° |
| 2026-04-25 14:48 | 29.64013 | -71.10497 | 35044 ft | 511 kts | 91° |
| 2026-04-25 14:48 | 29.63881 | -71.02350 | 35047 ft | 511 kts | 91° |
| 2026-04-25 14:49 | 29.63744 | -70.94179 | 35047 ft | 511 kts | 91° |
| 2026-04-25 14:49 | 29.63602 | -70.86042 | 35042 ft | 511 kts | 91° |
| 2026-04-25 14:50 | 29.63455 | -70.77846 | 35048 ft | 511 kts | 91° |
| 2026-04-25 14:50 | 29.63303 | -70.69676 | 35047 ft | 512 kts | 91° |
| 2026-04-25 14:51 | 29.63146 | -70.61520 | 35046 ft | 512 kts | 91° |
| 2026-04-25 14:51 | 29.62983 | -70.53302 | 35048 ft | 513 kts | 91° |
| 2026-04-25 14:52 | 29.62816 | -70.45138 | 35049 ft | 514 kts | 91° |
| 2026-04-25 14:52 | 29.62672 | -70.38274 | 35050 ft | 514 kts | 91° |
| 2026-04-25 14:53 | 29.62464 | -70.28683 | 35049 ft | 515 kts | 91° |
| 2026-04-25 14:53 | 29.62280 | -70.20412 | 35049 ft | 516 kts | 91° |
| 2026-04-25 14:54 | 29.62091 | -70.12203 | 35043 ft | 517 kts | 91° |
| 2026-04-25 14:54 | 29.61896 | -70.03918 | 35052 ft | 518 kts | 91° |
| 2026-04-25 14:55 | 29.61696 | -69.95651 | 35052 ft | 519 kts | 92° |
| 2026-04-25 14:55 | 29.61490 | -69.87320 | 35052 ft | 520 kts | 92° |
| 2026-04-25 14:56 | 29.61279 | -69.79018 | 35047 ft | 521 kts | 92° |
| 2026-04-25 14:56 | 29.61062 | -69.70698 | 35058 ft | 523 kts | 92° |
| 2026-04-25 14:57 | 29.60840 | -69.62354 | 35057 ft | 524 kts | 92° |
| 2026-04-25 14:57 | 29.60611 | -69.53970 | 35055 ft | 524 kts | 92° |
| 2026-04-25 14:58 | 29.60376 | -69.45596 | 35064 ft | 525 kts | 92° |
| 2026-04-25 14:58 | 29.60139 | -69.37281 | 35049 ft | 515 kts | 92° |
| 2026-04-25 14:59 | 29.59901 | -69.29100 | 35054 ft | 513 kts | 92° |
| 2026-04-25 14:59 | 29.59656 | -69.20879 | 35059 ft | 513 kts | 92° |
| 2026-04-25 15:00 | 29.59408 | -69.12695 | 35055 ft | 516 kts | 92° |
| 2026-04-25 15:00 | 29.59151 | -69.04448 | 35068 ft | 519 kts | 92° |
| 2026-04-25 15:01 | 29.58932 | -68.97514 | 35067 ft | 521 kts | 92° |
| 2026-04-25 15:01 | 29.58665 | -68.89213 | 35065 ft | 523 kts | 92° |
| 2026-04-25 15:02 | 29.58391 | -68.80858 | 35046 ft | 526 kts | 92° |
| 2026-04-25 15:02 | 29.58109 | -68.72409 | 35064 ft | 528 kts | 93° |
| 2026-04-25 15:03 | 29.57823 | -68.64008 | 35064 ft | 530 kts | 93° |
| 2026-04-25 15:03 | 29.57528 | -68.55501 | 35063 ft | 532 kts | 93° |
| 2026-04-25 15:04 | 29.57228 | -68.47022 | 35051 ft | 534 kts | 93° |
| 2026-04-25 15:04 | 29.56922 | -68.38521 | 35060 ft | 536 kts | 93° |
| 2026-04-25 15:05 | 29.56653 | -68.31144 | 35054 ft | 538 kts | 93° |
| 2026-04-25 15:06 | 29.56172 | -68.18262 | 35054 ft | 539 kts | 94° |
| 2026-04-25 15:06 | 29.55844 | -68.09662 | 35055 ft | 541 kts | 94° |
| 2026-04-25 15:07 | 29.55508 | -68.00995 | 35059 ft | 542 kts | 94° |
| 2026-04-25 15:07 | 29.55168 | -67.92377 | 35061 ft | 543 kts | 94° |
| 2026-04-25 15:08 | 29.54820 | -67.83688 | 35055 ft | 543 kts | 94° |
| 2026-04-25 15:08 | 29.54468 | -67.75055 | 35058 ft | 543 kts | 94° |
| 2026-04-25 15:09 | 29.54110 | -67.66388 | 35059 ft | 543 kts | 94° |
| 2026-04-25 15:09 | 29.53564 | -67.53445 | 35044 ft | 542 kts | 94° |
| 2026-04-25 15:10 | 29.53189 | -67.44762 | 35073 ft | 542 kts | 94° |
| 2026-04-25 15:11 | 29.52622 | -67.31803 | 35057 ft | 542 kts | 94° |
| 2026-04-25 15:11 | 29.52238 | -67.23206 | 35057 ft | 541 kts | 94° |
| 2026-04-25 15:12 | 29.51649 | -67.10225 | 35057 ft | 541 kts | 95° |
| 2026-04-25 15:12 | 29.51315 | -67.03022 | 35058 ft | 542 kts | 95° |
| 2026-04-25 15:13 | 29.50638 | -66.88621 | 35076 ft | 545 kts | 95° |
| 2026-04-25 15:14 | 29.50221 | -66.79923 | 35125 ft | 549 kts | 95° |
| 2026-04-25 15:14 | 29.49798 | -66.71199 | 35361 ft | 547 kts | 95° |
| 2026-04-25 15:14 | 29.49585 | -66.66847 | 35485 ft | 546 kts | 95° |
| 2026-04-25 15:15 | 29.49369 | -66.62474 | 35592 ft | 546 kts | 95° |
| 2026-04-25 15:15 | 29.48937 | -66.53794 | 35730 ft | 546 kts | 95° |
| 2026-04-25 15:16 | 29.48494 | -66.45042 | 35859 ft | 547 kts | 95° |
| 2026-04-25 15:16 | 29.47825 | -66.32006 | 36046 ft | 544 kts | 95° |
| 2026-04-25 15:17 | 29.47145 | -66.19002 | 36055 ft | 545 kts | 95° |
| 2026-04-25 15:18 | 29.46685 | -66.10345 | 36056 ft | 546 kts | 95° |
| 2026-04-25 15:18 | 29.45981 | -65.97310 | 36057 ft | 546 kts | 96° |
| 2026-04-25 15:19 | 29.45584 | -65.90048 | 36058 ft | 546 kts | 96° |
| 2026-04-25 15:19 | 29.45024 | -65.79921 | 36053 ft | 546 kts | 96° |
| 2026-04-25 15:20 | 29.44535 | -65.71207 | 36055 ft | 546 kts | 96° |
| 2026-04-25 15:20 | 29.44044 | -65.62559 | 36054 ft | 545 kts | 96° |
| 2026-04-25 15:21 | 29.43548 | -65.53905 | 36047 ft | 545 kts | 96° |
| 2026-04-25 15:21 | 29.43041 | -65.45179 | 36064 ft | 546 kts | 96° |
| 2026-04-25 15:22 | 29.42533 | -65.36520 | 36058 ft | 546 kts | 96° |
| 2026-04-25 15:22 | 29.42019 | -65.27851 | 36046 ft | 546 kts | 96° |
| 2026-04-25 15:23 | 29.41495 | -65.19122 | 36054 ft | 546 kts | 97° |
| 2026-04-25 15:23 | 29.40970 | -65.10468 | 36049 ft | 547 kts | 97° |
| 2026-04-25 15:24 | 29.40435 | -65.01737 | 36049 ft | 547 kts | 97° |
| 2026-04-25 15:24 | 29.39985 | -64.94477 | 36031 ft | 548 kts | 97° |
| 2026-04-25 15:25 | 29.39348 | -64.84294 | 36048 ft | 550 kts | 97° |
| 2026-04-25 15:25 | 29.38795 | -64.75565 | 36052 ft | 551 kts | 97° |
| 2026-04-25 15:26 | 29.38235 | -64.66805 | 36057 ft | 552 kts | 97° |
| 2026-04-25 15:26 | 29.37664 | -64.57971 | 36053 ft | 553 kts | 98° |
| 2026-04-25 15:27 | 29.37091 | -64.49192 | 36051 ft | 554 kts | 98° |
| 2026-04-25 15:28 | 29.36218 | -64.35984 | 36053 ft | 555 kts | 98° |
| 2026-04-25 15:28 | 29.35629 | -64.27168 | 36042 ft | 556 kts | 98° |
| 2026-04-25 15:29 | 29.35027 | -64.18277 | 36049 ft | 558 kts | 98° |
| 2026-04-25 15:29 | 29.34423 | -64.09430 | 36055 ft | 559 kts | 99° |
| 2026-04-25 15:30 | 29.33808 | -64.00506 | 36025 ft | 561 kts | 99° |
| 2026-04-25 15:30 | 29.33187 | -63.91594 | 36051 ft | 563 kts | 100° |
| 2026-04-25 15:31 | 29.32558 | -63.82651 | 36052 ft | 565 kts | 100° |
| 2026-04-25 15:31 | 29.31917 | -63.73620 | 36051 ft | 567 kts | 100° |
| 2026-04-25 15:32 | 29.31275 | -63.64652 | 36053 ft | 569 kts | 101° |
| 2026-04-25 15:32 | 29.30617 | -63.55576 | 36043 ft | 571 kts | 100° |
| 2026-04-25 15:33 | 29.29623 | -63.41968 | 36023 ft | 572 kts | 101° |
| 2026-04-25 15:33 | 29.28951 | -63.32898 | 36052 ft | 574 kts | 101° |
| 2026-04-25 15:34 | 29.28267 | -63.23750 | 36051 ft | 576 kts | 101° |
| 2026-04-25 15:34 | 29.27810 | -63.17676 | 36051 ft | 576 kts | 101° |
| 2026-04-25 15:35 | 29.26530 | -63.00876 | 36050 ft | 579 kts | 102° |
| 2026-04-25 15:36 | 29.25465 | -62.87099 | 36039 ft | 581 kts | 102° |
| 2026-04-25 15:36 | 29.24742 | -62.77856 | 36026 ft | 582 kts | 102° |
| 2026-04-25 15:37 | 29.24011 | -62.68594 | 36039 ft | 583 kts | 102° |
| 2026-04-25 15:37 | 29.23279 | -62.59393 | 36042 ft | 585 kts | 102° |
| 2026-04-25 15:38 | 29.22532 | -62.50091 | 36018 ft | 586 kts | 102° |
| 2026-04-25 15:38 | 29.21778 | -62.40769 | 36035 ft | 587 kts | 102° |
| 2026-04-25 15:39 | 29.21021 | -62.31505 | 36043 ft | 588 kts | 102° |
| 2026-04-25 15:39 | 29.20254 | -62.22202 | 36029 ft | 588 kts | 102° |
| 2026-04-25 15:40 | 29.19740 | -62.16007 | 36038 ft | 588 kts | 102° |
| 2026-04-25 15:40 | 29.18700 | -62.03564 | 36038 ft | 588 kts | 102° |
| 2026-04-25 15:41 | 29.17912 | -61.94241 | 36037 ft | 588 kts | 102° |
| 2026-04-25 15:41 | 29.17122 | -61.84969 | 36034 ft | 587 kts | 102° |
| 2026-04-25 15:42 | 29.16323 | -61.75662 | 36051 ft | 587 kts | 102° |
| 2026-04-25 15:42 | 29.15518 | -61.66387 | 36037 ft | 587 kts | 102° |
| 2026-04-25 15:43 | 29.14708 | -61.57108 | 36037 ft | 587 kts | 102° |
| 2026-04-25 15:43 | 29.13887 | -61.47782 | 36039 ft | 587 kts | 102° |
| 2026-04-25 15:44 | 29.13065 | -61.38515 | 36035 ft | 587 kts | 102° |
| 2026-04-25 15:44 | 29.12234 | -61.29225 | 36026 ft | 587 kts | 102° |
| 2026-04-25 15:45 | 29.11396 | -61.19916 | 36033 ft | 585 kts | 102° |
| 2026-04-25 15:45 | 29.10836 | -61.13741 | 36035 ft | 586 kts | 102° |
| 2026-04-25 15:46 | 29.09708 | -61.01423 | 36031 ft | 586 kts | 102° |
| 2026-04-25 15:46 | 29.08856 | -60.92186 | 36035 ft | 586 kts | 102° |
| 2026-04-25 15:47 | 29.07993 | -60.82897 | 36030 ft | 586 kts | 102° |
| 2026-04-25 15:47 | 29.07128 | -60.73663 | 36022 ft | 586 kts | 101° |
| 2026-04-25 15:48 | 29.06252 | -60.64369 | 36034 ft | 586 kts | 101° |
| 2026-04-25 15:48 | 29.05373 | -60.55129 | 36048 ft | 587 kts | 101° |
| 2026-04-25 15:49 | 29.04636 | -60.47424 | 36209 ft | 586 kts | 102° |
| 2026-04-25 15:49 | 29.03595 | -60.36634 | 36282 ft | 588 kts | 102° |
| 2026-04-25 15:50 | 29.02840 | -60.28855 | 36400 ft | 588 kts | 102° |
| 2026-04-25 15:50 | 29.01789 | -60.18098 | 36602 ft | 587 kts | 102° |
| 2026-04-25 15:51 | 29.01177 | -60.11884 | 36624 ft | 588 kts | 102° |
| 2026-04-25 15:51 | 29.00120 | -60.01011 | 36724 ft | 591 kts | 100° |
| 2026-04-25 15:52 | 28.99950 | -59.91610 | 36824 ft | 596 kts | 93° |
| 2026-04-25 15:52 | 29.00126 | -59.82068 | 36881 ft | 598 kts | 93° |
| 2026-04-25 15:53 | 29.00277 | -59.72597 | 36974 ft | 598 kts | 94° |
| 2026-04-25 15:53 | 29.00373 | -59.63128 | 37223 ft | 594 kts | 94° |
| 2026-04-25 15:54 | 29.00408 | -59.58452 | 37376 ft | 592 kts | 94° |
| 2026-04-25 15:54 | 29.00441 | -59.53753 | 37539 ft | 589 kts | 94° |
| 2026-04-25 15:54 | 29.00473 | -59.49043 | 37721 ft | 587 kts | 95° |
| 2026-04-25 15:54 | 29.00504 | -59.44453 | 37846 ft | 586 kts | 95° |
| 2026-04-25 15:55 | 29.00563 | -59.35160 | 37979 ft | 582 kts | 95° |
| 2026-04-25 15:55 | 29.00619 | -59.25900 | 38035 ft | 581 kts | 95° |
| 2026-04-25 15:56 | 29.00666 | -59.16692 | 38023 ft | 581 kts | 95° |
| 2026-04-25 15:56 | 29.00708 | -59.07470 | 38032 ft | 581 kts | 95° |
| 2026-04-25 15:57 | 29.00744 | -58.98270 | 38026 ft | 581 kts | 95° |
| 2026-04-25 15:57 | 29.00774 | -58.89019 | 38032 ft | 582 kts | 95° |
| 2026-04-25 15:58 | 29.00798 | -58.79754 | 38027 ft | 582 kts | 95° |
| 2026-04-25 15:58 | 29.00815 | -58.70526 | 38033 ft | 582 kts | 95° |
| 2026-04-25 15:59 | 29.00826 | -58.61253 | 38032 ft | 583 kts | 95° |
| 2026-04-25 15:59 | 29.00830 | -58.52010 | 37847 ft | 588 kts | 95° |
| 2026-04-25 16:00 | 29.00826 | -58.47294 | 37450 ft | 596 kts | 95° |
| 2026-04-25 16:00 | 29.00822 | -58.44149 | 37474 ft | 594 kts | 95° |
| 2026-04-25 16:00 | 29.00819 | -58.37884 | 37603 ft | 592 kts | 95° |
| 2026-04-25 16:00 | 29.00817 | -58.33153 | 37589 ft | 592 kts | 95° |
| 2026-04-25 16:01 | 29.00812 | -58.28486 | 37413 ft | 595 kts | 95° |
| 2026-04-25 16:01 | 29.00804 | -58.23743 | 37122 ft | 598 kts | 94° |
| 2026-04-25 16:01 | 29.00794 | -58.18951 | 36844 ft | 597 kts | 94° |
| 2026-04-25 16:01 | 29.00783 | -58.14215 | 36573 ft | 596 kts | 94° |
| 2026-04-25 16:02 | 29.00771 | -58.09534 | 36310 ft | 594 kts | 94° |
| 2026-04-25 16:02 | 29.00758 | -58.04830 | 36209 ft | 588 kts | 94° |
| 2026-04-25 16:02 | 29.00725 | -57.95538 | 36127 ft | 585 kts | 94° |
| 2026-04-25 16:03 | 29.00681 | -57.86232 | 36048 ft | 589 kts | 94° |
| 2026-04-25 16:03 | 29.00631 | -57.76853 | 36026 ft | 592 kts | 94° |
| 2026-04-25 16:04 | 29.00578 | -57.67422 | 36020 ft | 592 kts | 94° |
| 2026-04-25 16:04 | 29.00518 | -57.58011 | 36023 ft | 594 kts | 94° |
| 2026-04-25 16:05 | 29.00450 | -57.48533 | 36027 ft | 596 kts | 94° |
| 2026-04-25 16:06 | 29.00336 | -57.34308 | 36006 ft | 598 kts | 94° |
| 2026-04-25 16:06 | 29.00252 | -57.24857 | 36015 ft | 598 kts | 94° |
| 2026-04-25 16:07 | 29.00161 | -57.15365 | 36022 ft | 599 kts | 94° |
| 2026-04-25 16:07 | 29.00063 | -57.05826 | 36005 ft | 599 kts | 94° |
| 2026-04-25 16:08 | 28.99989 | -56.96280 | 36015 ft | 599 kts | 92° |
| 2026-04-25 16:08 | 29.00206 | -56.86787 | 36015 ft | 599 kts | 90° |
| 2026-04-25 16:09 | 29.00531 | -56.77290 | 36011 ft | 599 kts | 90° |
| 2026-04-25 16:09 | 29.00809 | -56.67751 | 36015 ft | 599 kts | 91° |
| 2026-04-25 16:10 | 29.01032 | -56.58278 | 36014 ft | 598 kts | 91° |
| 2026-04-25 16:10 | 29.01236 | -56.48759 | 36019 ft | 598 kts | 91° |
| 2026-04-25 16:11 | 29.01436 | -56.39282 | 36015 ft | 598 kts | 91° |
| 2026-04-25 16:11 | 29.01635 | -56.29814 | 36012 ft | 599 kts | 91° |
| 2026-04-25 16:12 | 29.01831 | -56.20273 | 36022 ft | 600 kts | 91° |
| 2026-04-25 16:12 | 29.02020 | -56.10703 | 36017 ft | 601 kts | 91° |
| 2026-04-25 16:13 | 29.02200 | -56.01188 | 36013 ft | 603 kts | 91° |
| 2026-04-25 16:13 | 29.02376 | -55.91565 | 36012 ft | 604 kts | 91° |
| 2026-04-25 16:14 | 29.02543 | -55.82027 | 36011 ft | 604 kts | 91° |
| 2026-04-25 16:14 | 29.02706 | -55.72372 | 36007 ft | 604 kts | 91° |
| 2026-04-25 16:15 | 29.02860 | -55.62791 | 36005 ft | 604 kts | 91° |
| 2026-04-25 16:15 | 29.03008 | -55.53249 | 36010 ft | 604 kts | 91° |
| 2026-04-25 16:16 | 29.03149 | -55.43600 | 36016 ft | 604 kts | 91° |
| 2026-04-25 16:16 | 29.03283 | -55.34047 | 36003 ft | 604 kts | 91° |
| 2026-04-25 16:17 | 29.03410 | -55.24443 | 35996 ft | 604 kts | 91° |
| 2026-04-25 16:17 | 29.03531 | -55.14871 | 36010 ft | 603 kts | 91° |
| 2026-04-25 16:18 | 29.03645 | -55.05266 | 36009 ft | 603 kts | 91° |
| 2026-04-25 16:18 | 29.03751 | -54.95725 | 35995 ft | 603 kts | 91° |
| 2026-04-25 16:19 | 29.03852 | -54.86110 | 36007 ft | 602 kts | 91° |
| 2026-04-25 16:19 | 29.03944 | -54.76580 | 36007 ft | 602 kts | 91° |
| 2026-04-25 16:20 | 29.04071 | -54.62190 | 36004 ft | 602 kts | 91° |
| 2026-04-25 16:21 | 29.04183 | -54.47887 | 35995 ft | 602 kts | 91° |
| 2026-04-25 16:21 | 29.04249 | -54.38307 | 36002 ft | 602 kts | 91° |
| 2026-04-25 16:22 | 29.04308 | -54.28730 | 36005 ft | 602 kts | 91° |
| 2026-04-25 16:22 | 29.04360 | -54.19166 | 35998 ft | 602 kts | 91° |
| 2026-04-25 16:23 | 29.04406 | -54.09627 | 36005 ft | 602 kts | 91° |
| 2026-04-25 16:23 | 29.04445 | -54.00022 | 36002 ft | 603 kts | 91° |
| 2026-04-25 16:24 | 29.04477 | -53.90424 | 36016 ft | 603 kts | 91° |
| 2026-04-25 16:24 | 29.04502 | -53.80877 | 36001 ft | 603 kts | 91° |
| 2026-04-25 16:25 | 29.04521 | -53.71301 | 35990 ft | 603 kts | 92° |
| 2026-04-25 16:25 | 29.04533 | -53.61702 | 35999 ft | 602 kts | 92° |
| 2026-04-25 16:26 | 29.04538 | -53.52162 | 36004 ft | 601 kts | 92° |
| 2026-04-25 16:26 | 29.04536 | -53.42639 | 36001 ft | 600 kts | 92° |
| 2026-04-25 16:27 | 29.04527 | -53.33139 | 36003 ft | 599 kts | 92° |
| 2026-04-25 16:27 | 29.04512 | -53.23595 | 35992 ft | 599 kts | 92° |
| 2026-04-25 16:28 | 29.04490 | -53.14098 | 36007 ft | 599 kts | 92° |
| 2026-04-25 16:28 | 29.04461 | -53.04609 | 36002 ft | 599 kts | 92° |
| 2026-04-25 16:29 | 29.04426 | -52.95098 | 35997 ft | 599 kts | 92° |
| 2026-04-25 16:29 | 29.04384 | -52.85573 | 36004 ft | 599 kts | 92° |
| 2026-04-25 16:30 | 29.04335 | -52.76023 | 35985 ft | 599 kts | 92° |
| 2026-04-25 16:30 | 29.04279 | -52.66527 | 36004 ft | 599 kts | 92° |
| 2026-04-25 16:31 | 29.04217 | -52.56993 | 36005 ft | 600 kts | 92° |
| 2026-04-25 16:31 | 29.04148 | -52.47461 | 36027 ft | 600 kts | 92° |
| 2026-04-25 16:32 | 29.04072 | -52.37974 | 36002 ft | 601 kts | 92° |
| 2026-04-25 16:32 | 29.03989 | -52.28374 | 35979 ft | 601 kts | 92° |
| 2026-04-25 16:33 | 29.03900 | -52.18828 | 36001 ft | 601 kts | 92° |
| 2026-04-25 16:33 | 29.03804 | -52.09311 | 36008 ft | 601 kts | 92° |
| 2026-04-25 16:34 | 29.03701 | -51.99715 | 35995 ft | 601 kts | 92° |
| 2026-04-25 16:34 | 29.03591 | -51.90189 | 36003 ft | 602 kts | 92° |
| 2026-04-25 16:35 | 29.03475 | -51.80632 | 35982 ft | 602 kts | 92° |
| 2026-04-25 16:35 | 29.03351 | -51.71080 | 36012 ft | 602 kts | 92° |
| 2026-04-25 16:36 | 29.03221 | -51.61485 | 36004 ft | 602 kts | 92° |
| 2026-04-25 16:36 | 29.03084 | -51.51933 | 35993 ft | 602 kts | 92° |
| 2026-04-25 16:37 | 29.02941 | -51.42388 | 36003 ft | 602 kts | 92° |
| 2026-04-25 16:37 | 29.02816 | -51.34429 | 36005 ft | 602 kts | 92° |
| 2026-04-25 16:38 | 29.02659 | -51.24831 | 35999 ft | 602 kts | 92° |
| 2026-04-25 16:38 | 29.02496 | -51.15285 | 36007 ft | 602 kts | 92° |
| 2026-04-25 16:39 | 29.02327 | -51.05755 | 36036 ft | 602 kts | 92° |
| 2026-04-25 16:39 | 29.02150 | -50.96171 | 36003 ft | 603 kts | 92° |
| 2026-04-25 16:40 | 29.01967 | -50.86564 | 35989 ft | 602 kts | 92° |
| 2026-04-25 16:40 | 29.01777 | -50.77032 | 36004 ft | 602 kts | 92° |
| 2026-04-25 16:41 | 29.01581 | -50.67492 | 36007 ft | 601 kts | 93° |
| 2026-04-25 16:41 | 29.01273 | -50.53180 | 36007 ft | 602 kts | 93° |
| 2026-04-25 16:42 | 29.01060 | -50.43610 | 36005 ft | 602 kts | 93° |
| 2026-04-25 16:42 | 29.00840 | -50.34073 | 36030 ft | 602 kts | 93° |
| 2026-04-25 16:43 | 29.00613 | -50.24535 | 36008 ft | 602 kts | 93° |
| 2026-04-25 16:43 | 29.00379 | -50.14935 | 35992 ft | 602 kts | 93° |
| 2026-04-25 16:44 | 29.00139 | -50.05412 | 36006 ft | 602 kts | 93° |
| 2026-04-25 16:44 | 28.99937 | -49.95807 | 35998 ft | 603 kts | 91° |
| 2026-04-25 16:45 | 29.00093 | -49.86260 | 36011 ft | 603 kts | 89° |
| 2026-04-25 16:45 | 29.00371 | -49.76655 | 36012 ft | 603 kts | 89° |
| 2026-04-25 16:46 | 29.00585 | -49.67109 | 36004 ft | 603 kts | 89° |
| 2026-04-25 16:46 | 29.00714 | -49.59108 | 36016 ft | 603 kts | 90° |
| 2026-04-25 16:47 | 29.00867 | -49.47964 | 35999 ft | 603 kts | 90° |
| 2026-04-25 16:47 | 29.00997 | -49.38417 | 36014 ft | 603 kts | 90° |
| 2026-04-25 16:48 | 29.01128 | -49.28812 | 36000 ft | 603 kts | 89° |
| 2026-04-25 16:48 | 29.01253 | -49.19251 | 36004 ft | 603 kts | 90° |
| 2026-04-25 16:49 | 29.01370 | -49.09653 | 36022 ft | 603 kts | 90° |
| 2026-04-25 16:49 | 29.01480 | -49.00094 | 36015 ft | 602 kts | 89° |
| 2026-04-25 16:50 | 29.01582 | -48.90545 | 36017 ft | 602 kts | 90° |
| 2026-04-25 16:50 | 29.01679 | -48.80975 | 36020 ft | 601 kts | 90° |
| 2026-04-25 16:51 | 29.01768 | -48.71449 | 36019 ft | 601 kts | 90° |
| 2026-04-25 16:51 | 29.01837 | -48.63489 | 36011 ft | 600 kts | 90° |
| 2026-04-25 16:52 | 29.01925 | -48.52380 | 36037 ft | 600 kts | 90° |
| 2026-04-25 16:52 | 29.01995 | -48.42809 | 36003 ft | 600 kts | 90° |
| 2026-04-25 16:53 | 29.02085 | -48.28548 | 36014 ft | 600 kts | 90° |
| 2026-04-25 16:54 | 29.02137 | -48.19031 | 36026 ft | 600 kts | 90° |
| 2026-04-25 16:54 | 29.02183 | -48.09473 | 36025 ft | 600 kts | 90° |
| 2026-04-25 16:55 | 29.02221 | -47.99977 | 36012 ft | 600 kts | 90° |
| 2026-04-25 16:55 | 29.02253 | -47.90453 | 36035 ft | 600 kts | 90° |
| 2026-04-25 16:56 | 29.02278 | -47.80913 | 36023 ft | 600 kts | 90° |
| 2026-04-25 16:56 | 29.02296 | -47.71400 | 36028 ft | 600 kts | 90° |
| 2026-04-25 16:57 | 29.02308 | -47.61853 | 36030 ft | 600 kts | 90° |
| 2026-04-25 16:57 | 29.02313 | -47.52331 | 36027 ft | 600 kts | 90° |
| 2026-04-25 16:58 | 29.02312 | -47.42822 | 36066 ft | 600 kts | 90° |
| 2026-04-25 16:58 | 29.02303 | -47.33293 | 36030 ft | 600 kts | 90° |
| 2026-04-25 16:59 | 29.02288 | -47.23732 | 36040 ft | 600 kts | 90° |
| 2026-04-25 16:59 | 29.02266 | -47.14246 | 36032 ft | 599 kts | 90° |
| 2026-04-25 17:00 | 29.02237 | -47.04736 | 36046 ft | 599 kts | 90° |
| 2026-04-25 17:00 | 29.02203 | -46.95171 | 36033 ft | 599 kts | 90° |
| 2026-04-25 17:01 | 29.02160 | -46.85688 | 36066 ft | 599 kts | 90° |
| 2026-04-25 17:01 | 29.02112 | -46.76182 | 36040 ft | 600 kts | 90° |
| 2026-04-25 17:02 | 29.02056 | -46.66622 | 36046 ft | 599 kts | 90° |
| 2026-04-25 17:02 | 29.01994 | -46.57094 | 36048 ft | 603 kts | 90° |
| 2026-04-25 17:03 | 29.01924 | -46.47476 | 36041 ft | 604 kts | 90° |
| 2026-04-25 17:03 | 29.01848 | -46.37928 | 36049 ft | 602 kts | 90° |
| 2026-04-25 17:04 | 29.01766 | -46.28334 | 36062 ft | 601 kts | 90° |
| 2026-04-25 17:04 | 29.01677 | -46.18835 | 36046 ft | 600 kts | 90° |
| 2026-04-25 17:05 | 29.01580 | -46.09283 | 36055 ft | 599 kts | 90° |
| 2026-04-25 17:05 | 29.01424 | -45.95033 | 36047 ft | 599 kts | 90° |
| 2026-04-25 17:06 | 29.01312 | -45.85550 | 36059 ft | 599 kts | 90° |
| 2026-04-25 17:06 | 29.01193 | -45.75988 | 36059 ft | 600 kts | 90° |
| 2026-04-25 17:07 | 29.01067 | -45.66496 | 36063 ft | 600 kts | 90° |
| 2026-04-25 17:07 | 29.00933 | -45.56924 | 36047 ft | 600 kts | 90° |
| 2026-04-25 17:08 | 29.00794 | -45.47414 | 36066 ft | 601 kts | 90° |
| 2026-04-25 17:08 | 29.00648 | -45.37903 | 36049 ft | 601 kts | 90° |
| 2026-04-25 17:09 | 29.00494 | -45.28335 | 36089 ft | 601 kts | 90° |
| 2026-04-25 17:09 | 29.00335 | -45.18806 | 36057 ft | 601 kts | 90° |
| 2026-04-25 17:10 | 29.00169 | -45.09294 | 36062 ft | 601 kts | 91° |
| 2026-04-25 17:10 | 28.99291 | -44.99787 | 36069 ft | 599 kts | 102° |
| 2026-04-25 17:11 | 28.97161 | -44.90642 | 36065 ft | 596 kts | 113° |
| 2026-04-25 17:11 | 28.94254 | -44.81813 | 36064 ft | 595 kts | 114° |
| 2026-04-25 17:12 | 28.91316 | -44.72939 | 36072 ft | 596 kts | 113° |
| 2026-04-25 17:12 | 28.88438 | -44.64080 | 36077 ft | 596 kts | 113° |
| 2026-04-25 17:13 | 28.86537 | -44.58179 | 36080 ft | 596 kts | 112° |
| 2026-04-25 17:13 | 28.82714 | -44.46327 | 36066 ft | 597 kts | 112° |
| 2026-04-25 17:14 | 28.79831 | -44.37439 | 36086 ft | 597 kts | 112° |
| 2026-04-25 17:14 | 28.76944 | -44.28571 | 36081 ft | 598 kts | 113° |
| 2026-04-25 17:15 | 28.74053 | -44.19714 | 36075 ft | 598 kts | 112° |
| 2026-04-25 17:15 | 28.71135 | -44.10795 | 36079 ft | 599 kts | 113° |
| 2026-04-25 17:16 | 28.68230 | -44.01935 | 36092 ft | 599 kts | 113° |
| 2026-04-25 17:16 | 28.65316 | -43.93073 | 36070 ft | 599 kts | 113° |
| 2026-04-25 17:17 | 28.62373 | -43.84145 | 36083 ft | 599 kts | 113° |
| 2026-04-25 17:17 | 28.59446 | -43.75286 | 36087 ft | 600 kts | 113° |
| 2026-04-25 17:18 | 28.56517 | -43.66445 | 36069 ft | 600 kts | 113° |
| 2026-04-25 17:18 | 28.53557 | -43.57534 | 36089 ft | 599 kts | 113° |
| 2026-04-25 17:19 | 28.50619 | -43.48711 | 36091 ft | 600 kts | 113° |
| 2026-04-25 17:19 | 28.47672 | -43.39883 | 36080 ft | 600 kts | 113° |
| 2026-04-25 17:20 | 28.44697 | -43.30991 | 36087 ft | 600 kts | 113° |
| 2026-04-25 17:20 | 28.41732 | -43.22154 | 36091 ft | 600 kts | 113° |
| 2026-04-25 17:21 | 28.38748 | -43.13280 | 36089 ft | 600 kts | 113° |
| 2026-04-25 17:21 | 28.35778 | -43.04473 | 36085 ft | 600 kts | 113° |
| 2026-04-25 17:22 | 28.33773 | -42.98536 | 36103 ft | 600 kts | 113° |
| 2026-04-25 17:22 | 28.29793 | -42.86785 | 36092 ft | 601 kts | 113° |
| 2026-04-25 17:23 | 28.26783 | -42.77923 | 36076 ft | 601 kts | 113° |
| 2026-04-25 17:23 | 28.23779 | -42.69102 | 36096 ft | 601 kts | 113° |
| 2026-04-25 17:24 | 28.20778 | -42.60310 | 36137 ft | 603 kts | 113° |
| 2026-04-25 17:24 | 28.19237 | -42.55804 | 36239 ft | 604 kts | 113° |
| 2026-04-25 17:24 | 28.17716 | -42.51360 | 36389 ft | 604 kts | 113° |
| 2026-04-25 17:25 | 28.16210 | -42.46967 | 36500 ft | 604 kts | 113° |
| 2026-04-25 17:25 | 28.14679 | -42.42505 | 36615 ft | 604 kts | 113° |
| 2026-04-25 17:25 | 28.13150 | -42.38056 | 36732 ft | 605 kts | 113° |
| 2026-04-25 17:25 | 28.11624 | -42.33618 | 36841 ft | 605 kts | 113° |
| 2026-04-25 17:26 | 28.09072 | -42.26212 | 37003 ft | 604 kts | 113° |
| 2026-04-25 17:26 | 28.06028 | -42.17396 | 37089 ft | 604 kts | 113° |
| 2026-04-25 17:27 | 28.02951 | -42.08508 | 37097 ft | 606 kts | 113° |
| 2026-04-25 17:27 | 28.00364 | -42.01116 | 37108 ft | 606 kts | 115° |
| 2026-04-25 17:28 | 27.95874 | -41.91256 | 37082 ft | 603 kts | 123° |
| 2026-04-25 17:28 | 27.91739 | -41.83033 | 37102 ft | 603 kts | 123° |
| 2026-04-25 17:29 | 27.87636 | -41.74799 | 37114 ft | 603 kts | 122° |
| 2026-04-25 17:29 | 27.83541 | -41.66480 | 37103 ft | 603 kts | 122° |
| 2026-04-25 17:30 | 27.79487 | -41.58226 | 37103 ft | 602 kts | 122° |
| 2026-04-25 17:30 | 27.75402 | -41.49937 | 37112 ft | 602 kts | 122° |
| 2026-04-25 17:31 | 27.71331 | -41.41709 | 37105 ft | 602 kts | 122° |
| 2026-04-25 17:31 | 27.67247 | -41.33470 | 37115 ft | 602 kts | 122° |
| 2026-04-25 17:32 | 27.63142 | -41.25204 | 37111 ft | 602 kts | 122° |
| 2026-04-25 17:32 | 27.59058 | -41.16996 | 37108 ft | 602 kts | 122° |
| 2026-04-25 17:33 | 27.54962 | -41.08779 | 37101 ft | 602 kts | 122° |
| 2026-04-25 17:33 | 27.50846 | -41.00536 | 37106 ft | 602 kts | 122° |
| 2026-04-25 17:34 | 27.46741 | -40.92334 | 37108 ft | 602 kts | 122° |
| 2026-04-25 17:34 | 27.42607 | -40.84094 | 37100 ft | 602 kts | 122° |
| 2026-04-25 17:35 | 27.38504 | -40.75921 | 37109 ft | 601 kts | 122° |
| 2026-04-25 17:35 | 27.34393 | -40.67749 | 37125 ft | 601 kts | 122° |
| 2026-04-25 17:36 | 27.30276 | -40.59587 | 37087 ft | 603 kts | 122° |
| 2026-04-25 17:36 | 27.26112 | -40.51345 | 37106 ft | 603 kts | 122° |
| 2026-04-25 17:37 | 27.21975 | -40.43171 | 37120 ft | 604 kts | 122° |
| 2026-04-25 17:37 | 27.17824 | -40.34985 | 37115 ft | 605 kts | 122° |
| 2026-04-25 17:38 | 27.14347 | -40.28139 | 37098 ft | 605 kts | 122° |
| 2026-04-25 17:38 | 27.09471 | -40.18556 | 37115 ft | 605 kts | 122° |
| 2026-04-25 17:39 | 27.05309 | -40.10395 | 37117 ft | 605 kts | 122° |
| 2026-04-25 17:39 | 27.01117 | -40.02186 | 37107 ft | 605 kts | 122° |
| 2026-04-25 17:40 | 26.97013 | -39.93933 | 37260 ft | 608 kts | 120° |
| 2026-04-25 17:40 | 26.95037 | -39.89704 | 37388 ft | 608 kts | 120° |
| 2026-04-25 17:40 | 26.93128 | -39.85542 | 37493 ft | 608 kts | 119° |
| 2026-04-25 17:41 | 26.91193 | -39.81312 | 37606 ft | 608 kts | 119° |
| 2026-04-25 17:41 | 26.89248 | -39.77088 | 37693 ft | 609 kts | 120° |
| 2026-04-25 17:41 | 26.85330 | -39.68688 | 37837 ft | 610 kts | 120° |
| 2026-04-25 17:42 | 26.81354 | -39.60257 | 38023 ft | 609 kts | 120° |
| 2026-04-25 17:42 | 26.77404 | -39.51909 | 38095 ft | 610 kts | 120° |
| 2026-04-25 17:43 | 26.73437 | -39.43529 | 38100 ft | 611 kts | 120° |
| 2026-04-25 17:43 | 26.69453 | -39.35117 | 38122 ft | 611 kts | 120° |
| 2026-04-25 17:44 | 26.65457 | -39.26696 | 38117 ft | 612 kts | 120° |
| 2026-04-25 17:44 | 26.61467 | -39.18307 | 38083 ft | 612 kts | 120° |
| 2026-04-25 17:45 | 26.58136 | -39.11315 | 38121 ft | 611 kts | 120° |
| 2026-04-25 17:45 | 26.53495 | -39.01594 | 38111 ft | 611 kts | 120° |
| 2026-04-25 17:46 | 26.49479 | -38.93199 | 38105 ft | 611 kts | 120° |
| 2026-04-25 17:46 | 26.45487 | -38.84870 | 38096 ft | 610 kts | 120° |
| 2026-04-25 17:47 | 26.41491 | -38.76548 | 38103 ft | 609 kts | 120° |
| 2026-04-25 17:47 | 26.37473 | -38.68196 | 38107 ft | 608 kts | 120° |
| 2026-04-25 17:48 | 26.31478 | -38.55764 | 38091 ft | 608 kts | 120° |
| 2026-04-25 17:49 | 26.27461 | -38.47456 | 38102 ft | 607 kts | 120° |
| 2026-04-25 17:49 | 26.23459 | -38.39191 | 38107 ft | 607 kts | 120° |
| 2026-04-25 17:50 | 26.19454 | -38.30938 | 38103 ft | 608 kts | 120° |
| 2026-04-25 17:50 | 26.15422 | -38.22643 | 38102 ft | 607 kts | 120° |
| 2026-04-25 17:51 | 26.11420 | -38.14425 | 38108 ft | 607 kts | 120° |
| 2026-04-25 17:51 | 26.07370 | -38.06125 | 38103 ft | 608 kts | 120° |
| 2026-04-25 17:52 | 26.03342 | -37.97886 | 38079 ft | 608 kts | 120° |
| 2026-04-25 17:52 | 25.99290 | -37.89611 | 38107 ft | 608 kts | 120° |
| 2026-04-25 17:53 | 25.95249 | -37.81374 | 38100 ft | 609 kts | 120° |
| 2026-04-25 17:53 | 25.91204 | -37.73146 | 38105 ft | 609 kts | 120° |
| 2026-04-25 17:54 | 25.87130 | -37.64873 | 38094 ft | 609 kts | 120° |
| 2026-04-25 17:54 | 25.83078 | -37.56658 | 38104 ft | 608 kts | 120° |
| 2026-04-25 17:55 | 25.78993 | -37.48395 | 38106 ft | 608 kts | 120° |
| 2026-04-25 17:55 | 25.74935 | -37.40200 | 38105 ft | 609 kts | 120° |
| 2026-04-25 17:56 | 25.70838 | -37.31939 | 38107 ft | 609 kts | 120° |
| 2026-04-25 17:56 | 25.66770 | -37.23754 | 38105 ft | 608 kts | 120° |
| 2026-04-25 17:57 | 25.62676 | -37.15529 | 38109 ft | 609 kts | 120° |
| 2026-04-25 17:57 | 25.58586 | -37.07330 | 38109 ft | 609 kts | 120° |
| 2026-04-25 17:58 | 25.54473 | -36.99099 | 38127 ft | 608 kts | 120° |
| 2026-04-25 17:58 | 25.50376 | -36.90914 | 38117 ft | 608 kts | 120° |
| 2026-04-25 17:59 | 25.46288 | -36.82760 | 38105 ft | 608 kts | 120° |
| 2026-04-25 17:59 | 25.42187 | -36.74597 | 38126 ft | 608 kts | 121° |
| 2026-04-25 18:00 | 25.38061 | -36.66398 | 38108 ft | 609 kts | 121° |
| 2026-04-25 18:00 | 25.33941 | -36.58227 | 38116 ft | 610 kts | 121° |
| 2026-04-25 18:01 | 25.29818 | -36.50063 | 38116 ft | 610 kts | 121° |
| 2026-04-25 18:01 | 25.25669 | -36.41863 | 38087 ft | 610 kts | 121° |
| 2026-04-25 18:02 | 25.21541 | -36.33717 | 38110 ft | 610 kts | 121° |
| 2026-04-25 18:02 | 25.17371 | -36.25503 | 38139 ft | 609 kts | 121° |
| 2026-04-25 18:03 | 25.13246 | -36.17393 | 38115 ft | 610 kts | 121° |
| 2026-04-25 18:03 | 25.09073 | -36.09204 | 38100 ft | 609 kts | 121° |
| 2026-04-25 18:04 | 25.04935 | -36.01096 | 38116 ft | 608 kts | 121° |
| 2026-04-25 18:04 | 25.00761 | -35.92932 | 38119 ft | 608 kts | 121° |
| 2026-04-25 18:05 | 24.96606 | -35.84821 | 38111 ft | 609 kts | 121° |
| 2026-04-25 18:05 | 24.92459 | -35.76738 | 38093 ft | 608 kts | 121° |
| 2026-04-25 18:06 | 24.88288 | -35.68621 | 38121 ft | 608 kts | 121° |
| 2026-04-25 18:06 | 24.84130 | -35.60545 | 38116 ft | 608 kts | 121° |
| 2026-04-25 18:07 | 24.79945 | -35.52431 | 38118 ft | 608 kts | 121° |
| 2026-04-25 18:07 | 24.75768 | -35.44346 | 38102 ft | 608 kts | 121° |
| 2026-04-25 18:08 | 24.71568 | -35.36229 | 38110 ft | 608 kts | 121° |
| 2026-04-25 18:08 | 24.67386 | -35.28163 | 38116 ft | 608 kts | 121° |
| 2026-04-25 18:09 | 24.63208 | -35.20117 | 38126 ft | 609 kts | 121° |
| 2026-04-25 18:09 | 24.58989 | -35.12006 | 38097 ft | 609 kts | 121° |
| 2026-04-25 18:10 | 24.54788 | -35.03943 | 38118 ft | 609 kts | 121° |
| 2026-04-25 18:10 | 24.50588 | -34.95894 | 38128 ft | 609 kts | 121° |
| 2026-04-25 18:11 | 24.46354 | -34.87796 | 38126 ft | 609 kts | 122° |
| 2026-04-25 18:11 | 24.42154 | -34.79777 | 38096 ft | 609 kts | 122° |
| 2026-04-25 18:12 | 24.37930 | -34.71724 | 38139 ft | 608 kts | 122° |
| 2026-04-25 18:12 | 24.33709 | -34.63690 | 38117 ft | 609 kts | 122° |
| 2026-04-25 18:13 | 24.30184 | -34.56993 | 38116 ft | 609 kts | 122° |
| 2026-04-25 18:13 | 24.25947 | -34.48952 | 38137 ft | 608 kts | 122° |
| 2026-04-25 18:14 | 24.19603 | -34.36940 | 38127 ft | 608 kts | 122° |
| 2026-04-25 18:14 | 24.15377 | -34.28954 | 38126 ft | 608 kts | 122° |
| 2026-04-25 18:15 | 24.11116 | -34.20915 | 38142 ft | 608 kts | 122° |
| 2026-04-25 18:15 | 24.06881 | -34.12939 | 38108 ft | 608 kts | 122° |
| 2026-04-25 18:16 | 24.02636 | -34.04953 | 38121 ft | 607 kts | 122° |
| 2026-04-25 18:17 | 23.96136 | -33.93029 | 38222 ft | 609 kts | 124° |
| 2026-04-25 18:17 | 23.93890 | -33.89143 | 38347 ft | 609 kts | 124° |
| 2026-04-25 18:17 | 23.91608 | -33.85237 | 38472 ft | 608 kts | 125° |
| 2026-04-25 18:17 | 23.89322 | -33.81325 | 38585 ft | 608 kts | 125° |
| 2026-04-25 18:18 | 23.87049 | -33.77418 | 38725 ft | 606 kts | 124° |
| 2026-04-25 18:18 | 23.84816 | -33.73560 | 38844 ft | 606 kts | 124° |
| 2026-04-25 18:18 | 23.82567 | -33.69659 | 38942 ft | 606 kts | 124° |
| 2026-04-25 18:19 | 23.78097 | -33.61887 | 39070 ft | 604 kts | 124° |
| 2026-04-25 18:19 | 23.73624 | -33.54119 | 39126 ft | 603 kts | 124° |
| 2026-04-25 18:20 | 23.69164 | -33.46397 | 39125 ft | 604 kts | 124° |
| 2026-04-25 18:20 | 23.64663 | -33.38622 | 39139 ft | 604 kts | 124° |
| 2026-04-25 18:21 | 23.60178 | -33.30887 | 39126 ft | 605 kts | 124° |
| 2026-04-25 18:21 | 23.55694 | -33.23162 | 39123 ft | 605 kts | 124° |
| 2026-04-25 18:22 | 23.51170 | -33.15381 | 39116 ft | 605 kts | 125° |
| 2026-04-25 18:22 | 23.46679 | -33.07667 | 39125 ft | 604 kts | 125° |
| 2026-04-25 18:23 | 23.42168 | -32.99931 | 39118 ft | 604 kts | 125° |
| 2026-04-25 18:23 | 23.37659 | -32.92211 | 39120 ft | 603 kts | 125° |
| 2026-04-25 18:24 | 23.33148 | -32.84500 | 39122 ft | 603 kts | 125° |
| 2026-04-25 18:24 | 23.28666 | -32.76850 | 39106 ft | 602 kts | 125° |
| 2026-04-25 18:25 | 23.24146 | -32.69147 | 39118 ft | 601 kts | 125° |
| 2026-04-25 18:25 | 23.19668 | -32.61526 | 39132 ft | 601 kts | 125° |
| 2026-04-25 18:26 | 23.15147 | -32.53844 | 39119 ft | 601 kts | 125° |
| 2026-04-25 18:26 | 23.10646 | -32.46207 | 39116 ft | 601 kts | 125° |
| 2026-04-25 18:27 | 23.06148 | -32.38586 | 39105 ft | 601 kts | 125° |
| 2026-04-25 18:27 | 23.01624 | -32.30932 | 39113 ft | 601 kts | 125° |
| 2026-04-25 18:28 | 22.97119 | -32.23323 | 39112 ft | 601 kts | 125° |
| 2026-04-25 18:28 | 22.92616 | -32.15728 | 39106 ft | 601 kts | 125° |
| 2026-04-25 18:29 | 22.85807 | -32.04263 | 39114 ft | 600 kts | 125° |
| 2026-04-25 18:30 | 22.76791 | -31.89123 | 39108 ft | 599 kts | 125° |
| 2026-04-25 18:30 | 22.72256 | -31.81525 | 39090 ft | 598 kts | 125° |
| 2026-04-25 18:31 | 22.67749 | -31.73982 | 39108 ft | 598 kts | 125° |
| 2026-04-25 18:31 | 22.63214 | -31.66405 | 39103 ft | 597 kts | 125° |
| 2026-04-25 18:32 | 22.58699 | -31.58873 | 39105 ft | 596 kts | 126° |
| 2026-04-25 18:32 | 22.54187 | -31.51355 | 39121 ft | 596 kts | 126° |
| 2026-04-25 18:33 | 22.49684 | -31.43864 | 39101 ft | 596 kts | 126° |
| 2026-04-25 18:33 | 22.45171 | -31.36366 | 39104 ft | 595 kts | 126° |
| 2026-04-25 18:34 | 22.40666 | -31.28894 | 39101 ft | 595 kts | 126° |
| 2026-04-25 18:34 | 22.36137 | -31.21391 | 39101 ft | 595 kts | 126° |
| 2026-04-25 18:35 | 22.31628 | -31.13932 | 39081 ft | 594 kts | 126° |
| 2026-04-25 18:35 | 22.27088 | -31.06431 | 39094 ft | 593 kts | 126° |
| 2026-04-25 18:36 | 22.22600 | -30.99028 | 39097 ft | 592 kts | 126° |
| 2026-04-25 18:36 | 22.18082 | -30.91585 | 39103 ft | 592 kts | 126° |
| 2026-04-25 18:37 | 22.13559 | -30.84146 | 39097 ft | 592 kts | 126° |
| 2026-04-25 18:37 | 22.09062 | -30.76757 | 39088 ft | 591 kts | 126° |
| 2026-04-25 18:38 | 22.04524 | -30.69313 | 39085 ft | 591 kts | 126° |
| 2026-04-25 18:38 | 22.00021 | -30.61935 | 39089 ft | 590 kts | 126° |
| 2026-04-25 18:39 | 21.95503 | -30.54543 | 39094 ft | 590 kts | 126° |
| 2026-04-25 18:39 | 21.90994 | -30.47178 | 39087 ft | 590 kts | 126° |
| 2026-04-25 18:40 | 21.86500 | -30.39844 | 39097 ft | 589 kts | 126° |
| 2026-04-25 18:40 | 21.81979 | -30.32477 | 39086 ft | 588 kts | 126° |
| 2026-04-25 18:41 | 21.77445 | -30.25101 | 39087 ft | 587 kts | 126° |
| 2026-04-25 18:41 | 21.72951 | -30.17798 | 39087 ft | 587 kts | 126° |
| 2026-04-25 18:42 | 21.69957 | -30.12937 | 39085 ft | 587 kts | 126° |
| 2026-04-25 18:42 | 21.63940 | -30.03183 | 39080 ft | 587 kts | 126° |
| 2026-04-25 18:43 | 21.59433 | -29.95888 | 39091 ft | 588 kts | 126° |
| 2026-04-25 18:43 | 21.54899 | -29.88558 | 39093 ft | 588 kts | 126° |
| 2026-04-25 18:44 | 21.50386 | -29.81270 | 39080 ft | 589 kts | 126° |
| 2026-04-25 18:44 | 21.45755 | -29.74005 | 39077 ft | 588 kts | 128° |
| 2026-04-25 18:45 | 21.41014 | -29.66892 | 39082 ft | 587 kts | 129° |
| 2026-04-25 18:45 | 21.36224 | -29.59731 | 39075 ft | 587 kts | 128° |
| 2026-04-25 18:46 | 21.31503 | -29.52622 | 39086 ft | 586 kts | 128° |
| 2026-04-25 18:46 | 21.26769 | -29.45468 | 39079 ft | 588 kts | 128° |
| 2026-04-25 18:47 | 21.22036 | -29.38324 | 39074 ft | 590 kts | 128° |
| 2026-04-25 18:47 | 21.17311 | -29.31201 | 39063 ft | 584 kts | 128° |
| 2026-04-25 18:48 | 21.12604 | -29.24120 | 39073 ft | 580 kts | 128° |
| 2026-04-25 18:48 | 21.07944 | -29.17122 | 39072 ft | 579 kts | 128° |
| 2026-04-25 18:49 | 21.03290 | -29.10141 | 39073 ft | 578 kts | 128° |
| 2026-04-25 18:49 | 20.98600 | -29.03115 | 39068 ft | 578 kts | 128° |
| 2026-04-25 18:50 | 20.93911 | -28.96098 | 39067 ft | 578 kts | 128° |
| 2026-04-25 18:50 | 20.89238 | -28.89114 | 39067 ft | 579 kts | 129° |
| 2026-04-25 18:51 | 20.86123 | -28.84463 | 39070 ft | 579 kts | 129° |
| 2026-04-25 18:51 | 20.79856 | -28.75116 | 39040 ft | 580 kts | 128° |
| 2026-04-25 18:52 | 20.75169 | -28.68136 | 39054 ft | 579 kts | 128° |
| 2026-04-25 18:52 | 20.70449 | -28.61114 | 39058 ft | 579 kts | 129° |
| 2026-04-25 18:53 | 20.65768 | -28.54160 | 39057 ft | 578 kts | 129° |
| 2026-04-25 18:53 | 20.61056 | -28.47169 | 39057 ft | 578 kts | 129° |
| 2026-04-25 18:54 | 20.54022 | -28.36749 | 39051 ft | 577 kts | 129° |
| 2026-04-25 18:55 | 20.49339 | -28.29820 | 39049 ft | 575 kts | 129° |
| 2026-04-25 18:55 | 20.44677 | -28.22931 | 39051 ft | 574 kts | 129° |
| 2026-04-25 18:56 | 20.39979 | -28.15998 | 39054 ft | 574 kts | 129° |
| 2026-04-25 18:56 | 20.35316 | -28.09126 | 39048 ft | 573 kts | 129° |
| 2026-04-25 18:57 | 20.30648 | -28.02253 | 39041 ft | 572 kts | 129° |
| 2026-04-25 18:57 | 20.25998 | -27.95414 | 39056 ft | 572 kts | 129° |
| 2026-04-25 18:58 | 20.21273 | -27.88599 | 39045 ft | 570 kts | 131° |
| 2026-04-25 18:58 | 20.13722 | -27.78870 | 39043 ft | 568 kts | 133° |
| 2026-04-25 18:59 | 20.03776 | -27.67795 | 39040 ft | 569 kts | 130° |
| 2026-04-25 19:00 | 19.97182 | -27.57267 | 39050 ft | 572 kts | 124° |
| 2026-04-25 19:01 | 19.93347 | -27.49818 | 39046 ft | 575 kts | 112° |
| 2026-04-25 19:01 | 19.92108 | -27.45820 | 39076 ft | 577 kts | 103° |
| 2026-04-25 19:01 | 19.90951 | -27.37372 | 39207 ft | 576 kts | 93° |
| 2026-04-25 19:02 | 19.89879 | -27.28980 | 39350 ft | 576 kts | 105° |
| 2026-04-25 19:02 | 19.88609 | -27.24945 | 39405 ft | 575 kts | 114° |
| 2026-04-25 19:02 | 19.86940 | -27.21078 | 39521 ft | 573 kts | 118° |
| 2026-04-25 19:03 | 19.83856 | -27.14871 | 39838 ft | 567 kts | 121° |
| 2026-04-25 19:03 | 19.81251 | -27.10032 | 39989 ft | 566 kts | 123° |
| 2026-04-25 19:03 | 19.79267 | -27.06463 | 40078 ft | 566 kts | 123° |
| 2026-04-25 19:04 | 19.75238 | -26.99286 | 40204 ft | 566 kts | 123° |
| 2026-04-25 19:04 | 19.73219 | -26.95669 | 40277 ft | 565 kts | 123° |
| 2026-04-25 19:05 | 19.69235 | -26.88478 | 40436 ft | 565 kts | 123° |
| 2026-04-25 19:05 | 19.65274 | -26.81296 | 40578 ft | 564 kts | 123° |
| 2026-04-25 19:06 | 19.61332 | -26.74151 | 40850 ft | 560 kts | 123° |
| 2026-04-25 19:06 | 19.57398 | -26.67037 | 40991 ft | 556 kts | 123° |
| 2026-04-25 19:06 | 19.55428 | -26.63481 | 41032 ft | 556 kts | 123° |
| 2026-04-25 19:07 | 19.49566 | -26.52915 | 41039 ft | 555 kts | 123° |
| 2026-04-25 19:08 | 19.43684 | -26.42330 | 41034 ft | 555 kts | 123° |
| 2026-04-25 19:09 | 19.36495 | -26.29415 | 41035 ft | 555 kts | 123° |
| 2026-04-25 19:10 | 19.29938 | -26.17660 | 41036 ft | 556 kts | 123° |
| 2026-04-25 19:10 | 19.26011 | -26.10631 | 41025 ft | 556 kts | 123° |
| 2026-04-25 19:11 | 19.22077 | -26.03596 | 41035 ft | 556 kts | 123° |
| 2026-04-25 19:11 | 19.18118 | -25.96527 | 41033 ft | 556 kts | 123° |
| 2026-04-25 19:12 | 19.14183 | -25.89506 | 41021 ft | 556 kts | 123° |
| 2026-04-25 19:12 | 19.10234 | -25.82470 | 41024 ft | 555 kts | 123° |
| 2026-04-25 19:13 | 19.06303 | -25.75475 | 41022 ft | 555 kts | 123° |
| 2026-04-25 19:13 | 19.02372 | -25.68487 | 41023 ft | 554 kts | 123° |
| 2026-04-25 19:14 | 18.98424 | -25.61477 | 41027 ft | 554 kts | 124° |
| 2026-04-25 19:14 | 18.94487 | -25.54496 | 41021 ft | 554 kts | 124° |
| 2026-04-25 19:15 | 18.90524 | -25.47475 | 41012 ft | 554 kts | 123° |
| 2026-04-25 19:15 | 18.86589 | -25.40512 | 41014 ft | 553 kts | 123° |
| 2026-04-25 19:16 | 18.82662 | -25.33570 | 41020 ft | 552 kts | 123° |
| 2026-04-25 19:16 | 18.78707 | -25.26587 | 41018 ft | 552 kts | 123° |
| 2026-04-25 19:17 | 18.74747 | -25.19605 | 41019 ft | 552 kts | 123° |
| 2026-04-25 19:17 | 18.70816 | -25.12680 | 41019 ft | 552 kts | 123° |
| 2026-04-25 19:18 | 18.66880 | -25.05753 | 41007 ft | 552 kts | 123° |
| 2026-04-25 19:18 | 18.62926 | -24.98803 | 41005 ft | 552 kts | 123° |
| 2026-04-25 19:19 | 18.58989 | -24.91892 | 41011 ft | 551 kts | 123° |
| 2026-04-25 19:19 | 18.55032 | -24.84951 | 41009 ft | 551 kts | 123° |
| 2026-04-25 19:20 | 18.51074 | -24.78018 | 41005 ft | 551 kts | 124° |
| 2026-04-25 19:20 | 18.47137 | -24.71128 | 41002 ft | 550 kts | 124° |
| 2026-04-25 19:21 | 18.43193 | -24.64234 | 41000 ft | 550 kts | 124° |
| 2026-04-25 19:21 | 18.37273 | -24.53900 | 41008 ft | 549 kts | 124° |
| 2026-04-25 19:22 | 18.33339 | -24.47042 | 41008 ft | 548 kts | 124° |
| 2026-04-25 19:23 | 18.27408 | -24.36715 | 41012 ft | 548 kts | 124° |
| 2026-04-25 19:23 | 18.21503 | -24.26452 | 41010 ft | 547 kts | 124° |
| 2026-04-25 19:24 | 18.17552 | -24.19595 | 40984 ft | 547 kts | 124° |
| 2026-04-25 19:25 | 18.09668 | -24.05930 | 41005 ft | 546 kts | 124° |
| 2026-04-25 19:25 | 18.05736 | -23.99127 | 40990 ft | 546 kts | 124° |
| 2026-04-25 19:26 | 18.01778 | -23.92286 | 40993 ft | 546 kts | 124° |
| 2026-04-25 19:26 | 17.97845 | -23.85496 | 40996 ft | 546 kts | 124° |
| 2026-04-25 19:27 | 17.94545 | -23.79803 | 40984 ft | 546 kts | 124° |
| 2026-04-25 19:27 | 17.89943 | -23.71874 | 40982 ft | 546 kts | 124° |
| 2026-04-25 19:28 | 17.86003 | -23.65091 | 40985 ft | 545 kts | 124° |
| 2026-04-25 19:28 | 17.82045 | -23.58286 | 40989 ft | 545 kts | 124° |
| 2026-04-25 19:29 | 17.78101 | -23.51511 | 40988 ft | 545 kts | 124° |
| 2026-04-25 19:29 | 17.74134 | -23.44704 | 40983 ft | 545 kts | 124° |
| 2026-04-25 19:30 | 17.70185 | -23.37935 | 40979 ft | 545 kts | 124° |
| 2026-04-25 19:30 | 17.66229 | -23.31161 | 40986 ft | 545 kts | 124° |
| 2026-04-25 19:31 | 17.62258 | -23.24369 | 40983 ft | 545 kts | 124° |
| 2026-04-25 19:31 | 17.58309 | -23.17621 | 40980 ft | 544 kts | 124° |
| 2026-04-25 19:32 | 17.54376 | -23.10906 | 40982 ft | 544 kts | 124° |
| 2026-04-25 19:32 | 17.51744 | -23.06417 | 40978 ft | 544 kts | 124° |
| 2026-04-25 19:33 | 17.46464 | -22.97420 | 40979 ft | 544 kts | 124° |
| 2026-04-25 19:33 | 17.42481 | -22.90641 | 40975 ft | 544 kts | 124° |
| 2026-04-25 19:34 | 17.38517 | -22.83902 | 40967 ft | 543 kts | 124° |
| 2026-04-25 19:34 | 17.34569 | -22.77195 | 40973 ft | 543 kts | 124° |
| 2026-04-25 19:35 | 17.30601 | -22.70461 | 40972 ft | 542 kts | 124° |
| 2026-04-25 19:35 | 17.26649 | -22.63762 | 40972 ft | 541 kts | 124° |
| 2026-04-25 19:36 | 17.22705 | -22.57085 | 40966 ft | 541 kts | 124° |
| 2026-04-25 19:36 | 17.18743 | -22.50380 | 40967 ft | 540 kts | 124° |
| 2026-04-25 19:37 | 17.14787 | -22.43695 | 40973 ft | 540 kts | 125° |
| 2026-04-25 19:37 | 17.10859 | -22.37059 | 40943 ft | 531 kts | 125° |
| 2026-04-25 19:38 | 17.07038 | -22.30607 | 40949 ft | 517 kts | 125° |
| 2026-04-25 19:38 | 17.03231 | -22.24194 | 40965 ft | 518 kts | 125° |
| 2026-04-25 19:39 | 16.99428 | -22.17798 | 40975 ft | 521 kts | 125° |
| 2026-04-25 19:39 | 16.95605 | -22.11372 | 40971 ft | 524 kts | 125° |
| 2026-04-25 19:40 | 16.91743 | -22.04881 | 40967 ft | 525 kts | 125° |
| 2026-04-25 19:40 | 16.87874 | -21.98383 | 40962 ft | 526 kts | 125° |
| 2026-04-25 19:41 | 16.84005 | -21.91892 | 40957 ft | 527 kts | 125° |
| 2026-04-25 19:41 | 16.81435 | -21.87584 | 40957 ft | 526 kts | 125° |
| 2026-04-25 19:42 | 16.76268 | -21.78931 | 40954 ft | 526 kts | 125° |
| 2026-04-25 19:42 | 16.72407 | -21.72473 | 40952 ft | 525 kts | 125° |
| 2026-04-25 19:43 | 16.68527 | -21.65987 | 40950 ft | 524 kts | 125° |
| 2026-04-25 19:43 | 16.64682 | -21.59569 | 40948 ft | 524 kts | 125° |
| 2026-04-25 19:44 | 16.60815 | -21.53117 | 40950 ft | 523 kts | 125° |
| 2026-04-25 19:44 | 16.56972 | -21.46714 | 40948 ft | 522 kts | 125° |
| 2026-04-25 19:45 | 16.53141 | -21.40334 | 40946 ft | 521 kts | 125° |
| 2026-04-25 19:45 | 16.49940 | -21.35007 | 40941 ft | 520 kts | 125° |
| 2026-04-25 19:46 | 16.46086 | -21.28602 | 40942 ft | 519 kts | 125° |
| 2026-04-25 19:46 | 16.42260 | -21.22248 | 40947 ft | 519 kts | 125° |
| 2026-04-25 19:47 | 16.38428 | -21.15890 | 40944 ft | 519 kts | 125° |
| 2026-04-25 19:47 | 16.34571 | -21.09496 | 40941 ft | 520 kts | 125° |
| 2026-04-25 19:48 | 16.30727 | -21.03129 | 40938 ft | 520 kts | 125° |
| 2026-04-25 19:48 | 16.26864 | -20.96735 | 40931 ft | 520 kts | 125° |
| 2026-04-25 19:49 | 16.23679 | -20.91468 | 40937 ft | 519 kts | 125° |
| 2026-04-25 19:49 | 16.19189 | -20.84051 | 40932 ft | 519 kts | 125° |
| 2026-04-25 19:50 | 16.13419 | -20.74529 | 40934 ft | 518 kts | 125° |
| 2026-04-25 19:51 | 16.09561 | -20.68169 | 40931 ft | 518 kts | 125° |
| 2026-04-25 19:51 | 16.05734 | -20.61867 | 40929 ft | 518 kts | 125° |
| 2026-04-25 19:52 | 16.01873 | -20.55512 | 40916 ft | 517 kts | 125° |
| 2026-04-25 19:52 | 15.98045 | -20.49219 | 40923 ft | 516 kts | 125° |
| 2026-04-25 19:53 | 15.94197 | -20.42897 | 40919 ft | 516 kts | 125° |
| 2026-04-25 19:53 | 15.90369 | -20.36614 | 40922 ft | 515 kts | 125° |
| 2026-04-25 19:54 | 15.86528 | -20.30316 | 40920 ft | 514 kts | 125° |
| 2026-04-25 19:54 | 15.82708 | -20.24056 | 40920 ft | 514 kts | 125° |
| 2026-04-25 19:55 | 15.78893 | -20.17811 | 40935 ft | 515 kts | 125° |
| 2026-04-25 19:55 | 15.75039 | -20.11505 | 40916 ft | 515 kts | 125° |
| 2026-04-25 19:56 | 15.71209 | -20.05243 | 40923 ft | 515 kts | 125° |
| 2026-04-25 19:56 | 15.67611 | -19.98822 | 40906 ft | 517 kts | 117° |
| 2026-04-25 19:57 | 15.64995 | -19.91882 | 40926 ft | 518 kts | 111° |
| 2026-04-25 19:57 | 15.62558 | -19.84816 | 40921 ft | 518 kts | 111° |
| 2026-04-25 19:58 | 15.60102 | -19.77829 | 40902 ft | 517 kts | 112° |
| 2026-04-25 19:58 | 15.57603 | -19.70830 | 40909 ft | 517 kts | 112° |
| 2026-04-25 19:59 | 15.55104 | -19.63854 | 40917 ft | 516 kts | 112° |
| 2026-04-25 19:59 | 15.52614 | -19.56902 | 40920 ft | 516 kts | 112° |
| 2026-04-25 20:00 | 15.50106 | -19.49900 | 40903 ft | 515 kts | 112° |
| 2026-04-25 20:00 | 15.47615 | -19.42952 | 40924 ft | 515 kts | 112° |
| 2026-04-25 20:01 | 15.43924 | -19.32483 | 40917 ft | 515 kts | 111° |
| 2026-04-25 20:01 | 15.41523 | -19.25519 | 40906 ft | 514 kts | 111° |
| 2026-04-25 20:02 | 15.39101 | -19.18515 | 40906 ft | 514 kts | 111° |
| 2026-04-25 20:02 | 15.36711 | -19.11630 | 40733 ft | 498 kts | 111° |
| 2026-04-25 20:03 | 15.35549 | -19.08290 | 40263 ft | 495 kts | 111° |
| 2026-04-25 20:03 | 15.34374 | -19.04921 | 39493 ft | 499 kts | 111° |
| 2026-04-25 20:03 | 15.33194 | -19.01540 | 38670 ft | 506 kts | 111° |
| 2026-04-25 20:03 | 15.31989 | -18.98091 | 37765 ft | 511 kts | 111° |
| 2026-04-25 20:04 | 15.30772 | -18.94604 | 37094 ft | 510 kts | 111° |
| 2026-04-25 20:04 | 15.29574 | -18.91174 | 36318 ft | 513 kts | 111° |
| 2026-04-25 20:04 | 15.28352 | -18.87674 | 35432 ft | 518 kts | 110° |
| 2026-04-25 20:04 | 15.27116 | -18.84137 | 34613 ft | 521 kts | 110° |
| 2026-04-25 20:05 | 15.25891 | -18.80633 | 33855 ft | 523 kts | 110° |
| 2026-04-25 20:05 | 15.24650 | -18.77083 | 33018 ft | 525 kts | 110° |
| 2026-04-25 20:05 | 15.23406 | -18.73529 | 32399 ft | 521 kts | 109° |
| 2026-04-25 20:05 | 15.22175 | -18.70015 | 32067 ft | 516 kts | 109° |
| 2026-04-25 20:06 | 15.20962 | -18.66552 | 31915 ft | 514 kts | 109° |
| 2026-04-25 20:06 | 15.19751 | -18.63100 | 31675 ft | 505 kts | 109° |
| 2026-04-25 20:06 | 15.18552 | -18.59682 | 30968 ft | 505 kts | 109° |
| 2026-04-25 20:06 | 15.17358 | -18.56278 | 30289 ft | 508 kts | 109° |
| 2026-04-25 20:07 | 15.16146 | -18.52826 | 29667 ft | 509 kts | 108° |
| 2026-04-25 20:07 | 15.14929 | -18.49362 | 28977 ft | 508 kts | 109° |
| 2026-04-25 20:07 | 15.13741 | -18.45982 | 28319 ft | 500 kts | 109° |
| 2026-04-25 20:07 | 15.12552 | -18.42603 | 27696 ft | 495 kts | 109° |
| 2026-04-25 20:08 | 15.11373 | -18.39253 | 27192 ft | 489 kts | 109° |
| 2026-04-25 20:08 | 15.10228 | -18.36002 | 26757 ft | 482 kts | 109° |
| 2026-04-25 20:08 | 15.09087 | -18.32764 | 26322 ft | 475 kts | 109° |
| 2026-04-25 20:08 | 15.07959 | -18.29564 | 25895 ft | 469 kts | 109° |
| 2026-04-25 20:09 | 15.06844 | -18.26403 | 25466 ft | 463 kts | 109° |
| 2026-04-25 20:09 | 15.05752 | -18.23306 | 25066 ft | 461 kts | 109° |
| 2026-04-25 20:09 | 15.04654 | -18.20197 | 24936 ft | 449 kts | 109° |
| 2026-04-25 20:09 | 15.03614 | -18.17252 | 24901 ft | 434 kts | 109° |
| 2026-04-25 20:10 | 15.02591 | -18.14358 | 24880 ft | 419 kts | 109° |
| 2026-04-25 20:10 | 15.01602 | -18.11562 | 24875 ft | 410 kts | 109° |
| 2026-04-25 20:10 | 15.00606 | -18.08744 | 24802 ft | 431 kts | 109° |
| 2026-04-25 20:10 | 14.99543 | -18.05733 | 24386 ft | 457 kts | 110° |
| 2026-04-25 20:11 | 14.98451 | -18.02646 | 23882 ft | 457 kts | 110° |
| 2026-04-25 20:11 | 14.97369 | -17.99592 | 23369 ft | 455 kts | 110° |
| 2026-04-25 20:11 | 14.96278 | -17.96511 | 22876 ft | 452 kts | 110° |
| 2026-04-25 20:11 | 14.95194 | -17.93456 | 22417 ft | 448 kts | 110° |
| 2026-04-25 20:12 | 14.94129 | -17.90453 | 21977 ft | 443 kts | 110° |
| 2026-04-25 20:12 | 14.93077 | -17.87488 | 21530 ft | 440 kts | 110° |
| 2026-04-25 20:12 | 14.92034 | -17.84552 | 21085 ft | 437 kts | 110° |
| 2026-04-25 20:12 | 14.91680 | -17.83554 | 20937 ft | 436 kts | 110° |
| 2026-04-25 20:13 | 14.89950 | -17.78683 | 20221 ft | 431 kts | 110° |
| 2026-04-25 20:13 | 14.88916 | -17.75776 | 19806 ft | 429 kts | 111° |
| 2026-04-25 20:13 | 14.87895 | -17.72914 | 19396 ft | 425 kts | 112° |
| 2026-04-25 20:13 | 14.86621 | -17.70159 | 18973 ft | 422 kts | 123° |
| 2026-04-25 20:14 | 14.84804 | -17.67842 | 18554 ft | 416 kts | 141° |
| 2026-04-25 20:14 | 14.82486 | -17.66089 | 18182 ft | 411 kts | 150° |
| 2026-04-25 20:14 | 14.80031 | -17.64564 | 17741 ft | 409 kts | 153° |
| 2026-04-25 20:14 | 14.77555 | -17.63113 | 17258 ft | 407 kts | 153° |
| 2026-04-25 20:15 | 14.75098 | -17.61697 | 16901 ft | 403 kts | 153° |
| 2026-04-25 20:15 | 14.72669 | -17.60302 | 16865 ft | 402 kts | 154° |
| 2026-04-25 20:15 | 14.70214 | -17.58897 | 16866 ft | 402 kts | 154° |
| 2026-04-25 20:15 | 14.67753 | -17.57493 | 16862 ft | 402 kts | 154° |
| 2026-04-25 20:16 | 14.65294 | -17.56092 | 16857 ft | 402 kts | 154° |
| 2026-04-25 20:16 | 14.62852 | -17.54704 | 16854 ft | 402 kts | 154° |
| 2026-04-25 20:16 | 14.60401 | -17.53311 | 16848 ft | 402 kts | 154° |
| 2026-04-25 20:16 | 14.57975 | -17.51936 | 16852 ft | 402 kts | 154° |
| 2026-04-25 20:17 | 14.55520 | -17.50547 | 16858 ft | 401 kts | 154° |
| 2026-04-25 20:17 | 14.53048 | -17.49150 | 16859 ft | 402 kts | 154° |
| 2026-04-25 20:17 | 14.50617 | -17.47776 | 16855 ft | 402 kts | 154° |
| 2026-04-25 20:17 | 14.48153 | -17.46382 | 16853 ft | 402 kts | 154° |
| 2026-04-25 20:18 | 14.45712 | -17.45001 | 16854 ft | 402 kts | 154° |
| 2026-04-25 20:18 | 14.43239 | -17.43604 | 16853 ft | 402 kts | 154° |
| 2026-04-25 20:18 | 14.40781 | -17.42219 | 16850 ft | 403 kts | 154° |
| 2026-04-25 20:18 | 14.38341 | -17.40845 | 16848 ft | 403 kts | 154° |
| 2026-04-25 20:19 | 14.35903 | -17.39475 | 16833 ft | 389 kts | 155° |
| 2026-04-25 20:19 | 14.33478 | -17.38519 | 16851 ft | 365 kts | 168° |
| 2026-04-25 20:19 | 14.31053 | -17.37977 | 16837 ft | 349 kts | 172° |
| 2026-04-25 20:19 | 14.28709 | -17.37550 | 16828 ft | 334 kts | 173° |
| 2026-04-25 20:20 | 14.26410 | -17.37149 | 16845 ft | 336 kts | 173° |
| 2026-04-25 20:20 | 14.24130 | -17.36760 | 16850 ft | 336 kts | 174° |
| 2026-04-25 20:20 | 14.21830 | -17.36365 | 16849 ft | 334 kts | 173° |
| 2026-04-25 20:20 | 14.19521 | -17.35969 | 16849 ft | 333 kts | 174° |
| 2026-04-25 20:21 | 14.17262 | -17.35584 | 16852 ft | 332 kts | 174° |
| 2026-04-25 20:21 | 14.14976 | -17.35195 | 16852 ft | 331 kts | 174° |
| 2026-04-25 20:21 | 14.12705 | -17.34810 | 16853 ft | 330 kts | 174° |
| 2026-04-25 20:21 | 14.10457 | -17.34464 | 16842 ft | 325 kts | 180° |
| 2026-04-25 20:22 | 14.08222 | -17.34617 | 16870 ft | 322 kts | 192° |
| 2026-04-25 20:22 | 14.07471 | -17.34745 | 16855 ft | 324 kts | 193° |
| 2026-04-25 20:22 | 14.03737 | -17.35428 | 16864 ft | 328 kts | 193° |
| 2026-04-25 20:22 | 14.01517 | -17.35853 | 16859 ft | 327 kts | 193° |
| 2026-04-25 20:23 | 13.99271 | -17.36286 | 16854 ft | 327 kts | 193° |
| 2026-04-25 20:23 | 13.97033 | -17.36718 | 16854 ft | 326 kts | 193° |
| 2026-04-25 20:23 | 13.94823 | -17.37144 | 16856 ft | 326 kts | 194° |
| 2026-04-25 20:23 | 13.92581 | -17.37573 | 16770 ft | 327 kts | 194° |
| 2026-04-25 20:24 | 13.90368 | -17.38000 | 16593 ft | 327 kts | 193° |
| 2026-04-25 20:24 | 13.88121 | -17.38440 | 16324 ft | 327 kts | 193° |
| 2026-04-25 20:24 | 13.85884 | -17.38879 | 15965 ft | 327 kts | 193° |
| 2026-04-25 20:24 | 13.83672 | -17.39314 | 15566 ft | 326 kts | 193° |
| 2026-04-25 20:25 | 13.81436 | -17.39758 | 15163 ft | 326 kts | 193° |
| 2026-04-25 20:25 | 13.79231 | -17.40201 | 14772 ft | 324 kts | 192° |
| 2026-04-25 20:25 | 13.76990 | -17.40242 | 14355 ft | 325 kts | 170° |
| 2026-04-25 20:25 | 13.74886 | -17.39355 | 13970 ft | 330 kts | 147° |
| 2026-04-25 20:26 | 13.73282 | -17.37696 | 13586 ft | 334 kts | 124° |
| 2026-04-25 20:26 | 13.72409 | -17.35535 | 13069 ft | 321 kts | 104° |
| 2026-04-25 20:26 | 13.72148 | -17.33292 | 12584 ft | 308 kts | 96° |
| 2026-04-25 20:26 | 13.72046 | -17.31106 | 12137 ft | 312 kts | 93° |
| 2026-04-25 20:27 | 13.71966 | -17.28841 | 11703 ft | 319 kts | 94° |
| 2026-04-25 20:27 | 13.72075 | -17.26561 | 11220 ft | 320 kts | 77° |
| 2026-04-25 20:27 | 13.73019 | -17.24513 | 10783 ft | 324 kts | 52° |
| 2026-04-25 20:27 | 13.74719 | -17.22977 | 10371 ft | 326 kts | 30° |
| 2026-04-25 20:28 | 13.76831 | -17.22137 | 9933 ft | 324 kts | 15° |
| 2026-04-25 20:28 | 13.79009 | -17.21590 | 9495 ft | 325 kts | 13° |
| 2026-04-25 20:28 | 13.81222 | -17.21060 | 9029 ft | 326 kts | 13° |
| 2026-04-25 20:28 | 13.83443 | -17.20532 | 8570 ft | 327 kts | 13° |
| 2026-04-25 20:29 | 13.85651 | -17.20002 | 8119 ft | 328 kts | 13° |
| 2026-04-25 20:29 | 13.87878 | -17.19461 | 7665 ft | 328 kts | 13° |
| 2026-04-25 20:29 | 13.90103 | -17.18915 | 7232 ft | 328 kts | 13° |
| 2026-04-25 20:29 | 13.92290 | -17.18374 | 6795 ft | 327 kts | 13° |
| 2026-04-25 20:30 | 13.94501 | -17.17824 | 6365 ft | 326 kts | 13° |
| 2026-04-25 20:30 | 13.96697 | -17.17276 | 6072 ft | 320 kts | 13° |
| 2026-04-25 20:30 | 13.98825 | -17.16744 | 5994 ft | 306 kts | 13° |
| 2026-04-25 20:30 | 14.00867 | -17.16234 | 5826 ft | 298 kts | 13° |
| 2026-04-25 20:31 | 14.02844 | -17.15738 | 5632 ft | 291 kts | 13° |
| 2026-04-25 20:31 | 14.04149 | -17.15411 | 5482 ft | 287 kts | 13° |
| 2026-04-25 20:31 | 14.06067 | -17.14931 | 5294 ft | 280 kts | 12° |
| 2026-04-25 20:31 | 14.08538 | -17.14312 | 5096 ft | 269 kts | 12° |
| 2026-04-25 20:32 | 14.09735 | -17.14012 | 5061 ft | 262 kts | 13° |
| 2026-04-25 20:32 | 14.11475 | -17.13576 | 5006 ft | 254 kts | 12° |
| 2026-04-25 20:32 | 14.13726 | -17.13011 | 4994 ft | 247 kts | 13° |
| 2026-04-25 20:32 | 14.14842 | -17.12731 | 4993 ft | 249 kts | 12° |
| 2026-04-25 20:33 | 14.16541 | -17.12305 | 5002 ft | 251 kts | 13° |
| 2026-04-25 20:33 | 14.18245 | -17.11878 | 4989 ft | 250 kts | 13° |
| 2026-04-25 20:33 | 14.19919 | -17.11458 | 4990 ft | 251 kts | 13° |
| 2026-04-25 20:33 | 14.21051 | -17.11175 | 4995 ft | 250 kts | 13° |
| 2026-04-25 20:34 | 14.23327 | -17.10603 | 4995 ft | 251 kts | 12° |
| 2026-04-25 20:34 | 14.25010 | -17.10180 | 4991 ft | 252 kts | 13° |
| 2026-04-25 20:34 | 14.26719 | -17.09751 | 4997 ft | 252 kts | 13° |
| 2026-04-25 20:34 | 14.28432 | -17.09320 | 4996 ft | 252 kts | 12° |
| 2026-04-25 20:35 | 14.30116 | -17.08898 | 4990 ft | 252 kts | 12° |
| 2026-04-25 20:35 | 14.31841 | -17.08464 | 4990 ft | 254 kts | 12° |
| 2026-04-25 20:35 | 14.33558 | -17.08033 | 4991 ft | 253 kts | 12° |
| 2026-04-25 20:35 | 14.35247 | -17.07609 | 4992 ft | 252 kts | 12° |
| 2026-04-25 20:36 | 14.36957 | -17.07179 | 4992 ft | 252 kts | 12° |
| 2026-04-25 20:36 | 14.38658 | -17.06751 | 4992 ft | 251 kts | 12° |
| 2026-04-25 20:36 | 14.40366 | -17.06567 | 4934 ft | 252 kts | 354° |
| 2026-04-25 20:36 | 14.42143 | -17.06807 | 4611 ft | 259 kts | 354° |
| 2026-04-25 20:37 | 14.43925 | -17.06912 | 4283 ft | 255 kts | 359° |
| 2026-04-25 20:37 | 14.45680 | -17.06933 | 3969 ft | 253 kts | 359° |
| 2026-04-25 20:37 | 14.47423 | -17.06952 | 3645 ft | 245 kts | 360° |
| 2026-04-25 20:37 | 14.49084 | -17.06977 | 3335 ft | 231 kts | 359° |
| 2026-04-25 20:38 | 14.50638 | -17.07004 | 3058 ft | 219 kts | 0° |
| 2026-04-25 20:38 | 14.52123 | -17.07028 | 2785 ft | 206 kts | 0° |
| 2026-04-25 20:38 | 14.53518 | -17.07050 | 2535 ft | 193 kts | 360° |
| 2026-04-25 20:38 | 14.54821 | -17.07070 | 2281 ft | 187 kts | 359° |
| 2026-04-25 20:39 | 14.56140 | -17.07093 | 2089 ft | 187 kts | 1° |
| 2026-04-25 20:39 | 14.57388 | -17.07113 | 1856 ft | 170 kts | 0° |
| 2026-04-25 20:39 | 14.58497 | -17.07131 | 1643 ft | 146 kts | 1° |
| 2026-04-25 20:39 | 14.59139 | -17.07142 | 1496 ft | 130 kts | 2° |
| 2026-04-25 20:40 | 14.60297 | -17.07161 | 1326 ft | 135 kts | 359° |
| 2026-04-25 20:40 | 14.61254 | -17.07175 | 1138 ft | 136 kts | 358° |
| 2026-04-25 20:40 | 14.62203 | -17.07191 | 942 ft | 137 kts | 0° |
| 2026-04-25 20:40 | 14.63125 | -17.07205 | 768 ft | 128 kts | 359° |
| 2026-04-25 20:41 | 14.64006 | -17.07219 | 633 ft | 128 kts | 357° |
| 2026-04-25 20:41 | 14.64917 | -17.07257 | 505 ft | 135 kts | 357° |
| 2026-04-25 20:41 | 14.65870 | -17.07270 | 306 ft | 132 kts | 359° |
| 2026-04-25 20:41 | 14.66675 | -17.07278 | 300 ft | 97 kts | 359° |
| 2026-04-25 20:42 | 14.67196 | -17.07285 | 300 ft | 52 kts | 359° |
| 2026-04-25 20:42 | 14.67479 | -17.07285 | 296 ft | 37 kts | 2° |
| 2026-04-25 20:42 | 14.67567 | -17.07283 | 300 ft | 0 kts | 0° |
| 2026-04-25 20:43 | 14.67696 | -17.07248 | 300 ft | 23 kts | 22° |
| 2026-04-25 20:43 | 14.67810 | -17.07182 | 300 ft | 12 kts | 37° |
| 2026-04-25 20:43 | 14.67821 | -17.07111 | 302 ft | 12 kts | 133° |
| 2026-04-25 20:43 | 14.67741 | -17.07098 | 298 ft | 12 kts | 178° |
| 2026-04-25 20:44 | 14.67659 | -17.07095 | 298 ft | 12 kts | 179° |
| 2026-04-25 20:44 | 14.67576 | -17.07094 | 301 ft | 12 kts | 173° |
| 2026-04-25 20:44 | 14.67533 | -17.07029 | 299 ft | 4 kts | 107° |
| 2026-04-25 20:44 | 14.67532 | -17.07028 | 299 ft | 1 kts | 107° |
| 2026-04-25 20:45 | 14.67496 | -17.06991 | 301 ft | 10 kts | 156° |
| 2026-04-25 20:45 | 14.67429 | -17.06981 | 301 ft | 10 kts | 179° |
| 2026-04-25 20:45 | 14.67359 | -17.06981 | 298 ft | 10 kts | 180° |
| 2026-04-25 20:45 | 14.67286 | -17.06980 | 298 ft | 11 kts | 180° |
| 2026-04-25 20:46 | 14.67212 | -17.06979 | 298 ft | 11 kts | 179° |
| 2026-04-25 20:46 | 14.67136 | -17.06979 | 298 ft | 11 kts | 179° |
| 2026-04-25 20:46 | 14.67061 | -17.06977 | 298 ft | 11 kts | 174° |
| 2026-04-25 20:46 | 14.67024 | -17.06917 | 301 ft | 11 kts | 92° |
| 2026-04-25 20:47 | 14.67023 | -17.06865 | 301 ft | 0 kts | 91° |